CPA147 VHHH-YBCS
Flight info
| Callsign | CPA147 |
|---|---|
| Flight time | N/A |
| Altitude | 37000 |
| Route | DALOL1X/07R DALOL V642 NOMAN A461 AVMUP W16 MIA B462 IPATA W25 BATAY W8 MCT W21 FORTA B473 OVLET |
| Aircraft | A333/H-SDE3GHIJ2J3J5M1RVWXY/LB2D1 |
Departure
| Time | N/A |
|---|---|
| Airport | Hong Kong International Airport (VHHH) |
Arrival
| Time | 2026-04-27 08:41 |
|---|---|
| Airport | Cairns International Airport (YBCS) |
| Time | Latitude | Longitude | Altitude | Speed | Heading |
|---|---|---|---|---|---|
| 2026-04-27 01:52 | 17.95358 | 118.98154 | 36990 ft | 494 kts | 153° |
| 2026-04-27 01:53 | 17.92385 | 118.99973 | 36980 ft | 493 kts | 155° |
| 2026-04-27 01:53 | 17.86379 | 119.03454 | 36983 ft | 493 kts | 155° |
| 2026-04-27 01:54 | 17.80349 | 119.06896 | 36951 ft | 493 kts | 155° |
| 2026-04-27 01:54 | 17.74369 | 119.10334 | 36954 ft | 493 kts | 155° |
| 2026-04-27 01:54 | 17.71395 | 119.12054 | 36956 ft | 481 kts | 155° |
| 2026-04-27 01:55 | 17.68506 | 119.13732 | 36953 ft | 468 kts | 155° |
| 2026-04-27 01:55 | 17.65691 | 119.15367 | 36958 ft | 457 kts | 156° |
| 2026-04-27 01:55 | 17.62925 | 119.16969 | 36951 ft | 452 kts | 156° |
| 2026-04-27 01:56 | 17.54651 | 119.21739 | 36957 ft | 453 kts | 156° |
| 2026-04-27 01:56 | 17.49155 | 119.24906 | 36952 ft | 453 kts | 156° |
| 2026-04-27 01:57 | 17.43625 | 119.28095 | 36952 ft | 453 kts | 156° |
| 2026-04-27 01:57 | 17.38084 | 119.31289 | 36949 ft | 454 kts | 156° |
| 2026-04-27 01:58 | 17.32543 | 119.34481 | 36945 ft | 454 kts | 156° |
| 2026-04-27 01:58 | 17.27044 | 119.37646 | 36948 ft | 454 kts | 156° |
| 2026-04-27 01:59 | 17.21502 | 119.40835 | 36951 ft | 454 kts | 156° |
| 2026-04-27 01:59 | 17.15956 | 119.44023 | 36950 ft | 454 kts | 156° |
| 2026-04-27 02:00 | 17.10411 | 119.47208 | 36954 ft | 454 kts | 156° |
| 2026-04-27 02:00 | 17.04897 | 119.50372 | 36946 ft | 455 kts | 156° |
| 2026-04-27 02:01 | 16.99333 | 119.53563 | 36948 ft | 456 kts | 156° |
| 2026-04-27 02:01 | 16.93781 | 119.56747 | 36945 ft | 455 kts | 156° |
| 2026-04-27 02:02 | 16.88229 | 119.59928 | 36945 ft | 455 kts | 156° |
| 2026-04-27 02:02 | 16.82675 | 119.63108 | 36942 ft | 455 kts | 156° |
| 2026-04-27 02:03 | 16.77117 | 119.66287 | 36946 ft | 455 kts | 156° |
| 2026-04-27 02:03 | 16.71561 | 119.69463 | 36938 ft | 455 kts | 156° |
| 2026-04-27 02:04 | 16.66035 | 119.72620 | 36936 ft | 455 kts | 156° |
| 2026-04-27 02:04 | 16.60471 | 119.75797 | 36936 ft | 455 kts | 156° |
| 2026-04-27 02:05 | 16.54914 | 119.78968 | 36936 ft | 455 kts | 156° |
| 2026-04-27 02:05 | 16.49351 | 119.82140 | 36937 ft | 455 kts | 156° |
| 2026-04-27 02:06 | 16.43792 | 119.85307 | 36933 ft | 455 kts | 156° |
| 2026-04-27 02:06 | 16.38237 | 119.88471 | 36934 ft | 455 kts | 156° |
| 2026-04-27 02:07 | 16.32685 | 119.91630 | 36935 ft | 455 kts | 156° |
| 2026-04-27 02:07 | 16.27135 | 119.94786 | 36933 ft | 455 kts | 156° |
| 2026-04-27 02:08 | 16.21607 | 119.97928 | 36933 ft | 455 kts | 156° |
| 2026-04-27 02:08 | 16.16046 | 120.01086 | 36933 ft | 455 kts | 156° |
| 2026-04-27 02:09 | 16.10489 | 120.04240 | 36931 ft | 455 kts | 156° |
| 2026-04-27 02:09 | 16.04970 | 120.07371 | 36931 ft | 454 kts | 156° |
| 2026-04-27 02:10 | 15.99421 | 120.10517 | 36937 ft | 455 kts | 156° |
| 2026-04-27 02:10 | 15.93865 | 120.13664 | 36933 ft | 454 kts | 156° |
| 2026-04-27 02:11 | 15.88311 | 120.16810 | 36937 ft | 454 kts | 156° |
| 2026-04-27 02:11 | 15.82763 | 120.19949 | 36939 ft | 453 kts | 156° |
| 2026-04-27 02:12 | 15.77221 | 120.23081 | 36942 ft | 454 kts | 156° |
| 2026-04-27 02:12 | 15.71674 | 120.26216 | 36953 ft | 453 kts | 156° |
| 2026-04-27 02:13 | 15.66139 | 120.29342 | 36942 ft | 452 kts | 156° |
| 2026-04-27 02:13 | 15.60645 | 120.32443 | 36947 ft | 452 kts | 156° |
| 2026-04-27 02:14 | 15.55114 | 120.35562 | 36953 ft | 452 kts | 156° |
| 2026-04-27 02:14 | 15.50508 | 120.38158 | 36949 ft | 453 kts | 156° |
| 2026-04-27 02:15 | 15.44976 | 120.41275 | 36962 ft | 452 kts | 156° |
| 2026-04-27 02:15 | 15.39449 | 120.44387 | 36958 ft | 451 kts | 156° |
| 2026-04-27 02:16 | 15.33932 | 120.47491 | 36961 ft | 450 kts | 155° |
| 2026-04-27 02:16 | 15.28433 | 120.50584 | 36963 ft | 450 kts | 156° |
| 2026-04-27 02:17 | 15.22924 | 120.53680 | 36964 ft | 450 kts | 155° |
| 2026-04-27 02:17 | 15.17477 | 120.56813 | 36964 ft | 451 kts | 153° |
| 2026-04-27 02:18 | 15.12181 | 120.60342 | 36964 ft | 453 kts | 150° |
| 2026-04-27 02:18 | 15.06945 | 120.63994 | 36954 ft | 453 kts | 149° |
| 2026-04-27 02:19 | 15.01719 | 120.67609 | 36957 ft | 451 kts | 150° |
| 2026-04-27 02:19 | 14.96516 | 120.71162 | 36952 ft | 450 kts | 150° |
| 2026-04-27 02:20 | 14.91284 | 120.74718 | 36939 ft | 450 kts | 150° |
| 2026-04-27 02:20 | 14.86037 | 120.78279 | 36932 ft | 450 kts | 150° |
| 2026-04-27 02:21 | 14.80795 | 120.81837 | 36934 ft | 450 kts | 150° |
| 2026-04-27 02:21 | 14.75581 | 120.85376 | 36929 ft | 450 kts | 150° |
| 2026-04-27 02:22 | 14.70348 | 120.88927 | 36928 ft | 449 kts | 150° |
| 2026-04-27 02:22 | 14.65122 | 120.92470 | 36930 ft | 448 kts | 150° |
| 2026-04-27 02:23 | 14.59904 | 120.96003 | 36934 ft | 448 kts | 150° |
| 2026-04-27 02:23 | 14.54695 | 120.99530 | 36933 ft | 447 kts | 150° |
| 2026-04-27 02:24 | 14.49862 | 121.03532 | 36934 ft | 452 kts | 136° |
| 2026-04-27 02:24 | 14.45684 | 121.08390 | 36934 ft | 453 kts | 133° |
| 2026-04-27 02:25 | 14.41649 | 121.13403 | 36934 ft | 454 kts | 132° |
| 2026-04-27 02:25 | 14.37633 | 121.18432 | 36932 ft | 453 kts | 132° |
| 2026-04-27 02:26 | 14.33608 | 121.23435 | 36938 ft | 451 kts | 132° |
| 2026-04-27 02:26 | 14.29594 | 121.28400 | 36937 ft | 450 kts | 132° |
| 2026-04-27 02:27 | 14.25605 | 121.33321 | 36944 ft | 450 kts | 132° |
| 2026-04-27 02:27 | 14.21587 | 121.38277 | 36944 ft | 450 kts | 132° |
| 2026-04-27 02:28 | 14.17567 | 121.43235 | 36950 ft | 450 kts | 132° |
| 2026-04-27 02:28 | 14.13552 | 121.48183 | 36947 ft | 450 kts | 132° |
| 2026-04-27 02:29 | 14.09529 | 121.53137 | 36945 ft | 450 kts | 133° |
| 2026-04-27 02:29 | 14.05536 | 121.58053 | 36950 ft | 449 kts | 133° |
| 2026-04-27 02:30 | 14.01515 | 121.62999 | 36950 ft | 449 kts | 133° |
| 2026-04-27 02:30 | 13.97499 | 121.67936 | 36946 ft | 448 kts | 133° |
| 2026-04-27 02:31 | 13.93496 | 121.72854 | 36949 ft | 448 kts | 133° |
| 2026-04-27 02:31 | 13.89490 | 121.77773 | 36943 ft | 448 kts | 133° |
| 2026-04-27 02:32 | 13.85171 | 121.82280 | 36944 ft | 443 kts | 144° |
| 2026-04-27 02:32 | 13.80298 | 121.86149 | 36942 ft | 442 kts | 147° |
| 2026-04-27 02:33 | 13.75321 | 121.89891 | 36944 ft | 442 kts | 147° |
| 2026-04-27 02:33 | 13.70337 | 121.93613 | 36942 ft | 442 kts | 147° |
| 2026-04-27 02:34 | 13.65358 | 121.97350 | 36940 ft | 442 kts | 147° |
| 2026-04-27 02:34 | 13.60402 | 122.01082 | 36942 ft | 441 kts | 147° |
| 2026-04-27 02:35 | 13.55451 | 122.04813 | 36942 ft | 441 kts | 147° |
| 2026-04-27 02:35 | 13.50539 | 122.08510 | 36944 ft | 441 kts | 147° |
| 2026-04-27 02:36 | 13.45597 | 122.12229 | 36942 ft | 439 kts | 147° |
| 2026-04-27 02:36 | 13.40664 | 122.15938 | 36941 ft | 439 kts | 147° |
| 2026-04-27 02:37 | 13.35721 | 122.19653 | 36944 ft | 439 kts | 147° |
| 2026-04-27 02:37 | 13.30815 | 122.23338 | 36938 ft | 439 kts | 147° |
| 2026-04-27 02:38 | 13.25888 | 122.27038 | 36941 ft | 437 kts | 147° |
| 2026-04-27 02:38 | 13.20978 | 122.30722 | 36969 ft | 437 kts | 147° |
| 2026-04-27 02:39 | 13.16066 | 122.34405 | 36938 ft | 437 kts | 147° |
| 2026-04-27 02:39 | 13.11175 | 122.38071 | 36936 ft | 440 kts | 147° |
| 2026-04-27 02:40 | 13.06182 | 122.41809 | 36938 ft | 448 kts | 147° |
| 2026-04-27 02:40 | 13.01096 | 122.45616 | 36934 ft | 455 kts | 147° |
| 2026-04-27 02:41 | 12.95974 | 122.49451 | 36933 ft | 454 kts | 147° |
| 2026-04-27 02:41 | 12.90873 | 122.53270 | 36933 ft | 454 kts | 147° |
| 2026-04-27 02:42 | 12.85772 | 122.57085 | 36936 ft | 454 kts | 147° |
| 2026-04-27 02:42 | 12.80697 | 122.60876 | 36936 ft | 454 kts | 147° |
| 2026-04-27 02:43 | 12.75592 | 122.64689 | 36933 ft | 454 kts | 147° |
| 2026-04-27 02:43 | 12.70482 | 122.68504 | 36933 ft | 454 kts | 147° |
| 2026-04-27 02:44 | 12.65373 | 122.72316 | 36939 ft | 454 kts | 147° |
| 2026-04-27 02:44 | 12.60278 | 122.76116 | 36936 ft | 452 kts | 147° |
| 2026-04-27 02:45 | 12.55215 | 122.79891 | 36932 ft | 452 kts | 147° |
| 2026-04-27 02:45 | 12.50149 | 122.83664 | 36930 ft | 452 kts | 147° |
| 2026-04-27 02:46 | 12.45062 | 122.87452 | 36927 ft | 452 kts | 147° |
| 2026-04-27 02:46 | 12.39969 | 122.91242 | 36928 ft | 452 kts | 147° |
| 2026-04-27 02:47 | 12.34884 | 122.95026 | 36928 ft | 452 kts | 147° |
| 2026-04-27 02:47 | 12.29800 | 122.98806 | 36925 ft | 452 kts | 147° |
| 2026-04-27 02:48 | 12.24743 | 123.02563 | 36925 ft | 452 kts | 147° |
| 2026-04-27 02:48 | 12.19659 | 123.06340 | 36925 ft | 452 kts | 147° |
| 2026-04-27 02:49 | 12.14559 | 123.10127 | 36927 ft | 452 kts | 147° |
| 2026-04-27 02:49 | 12.09467 | 123.13906 | 36927 ft | 452 kts | 147° |
| 2026-04-27 02:50 | 12.04401 | 123.17663 | 36924 ft | 452 kts | 147° |
| 2026-04-27 02:50 | 11.99298 | 123.21447 | 36926 ft | 452 kts | 147° |
| 2026-04-27 02:51 | 11.94225 | 123.25206 | 36926 ft | 452 kts | 146° |
| 2026-04-27 02:51 | 11.89139 | 123.28974 | 36928 ft | 451 kts | 146° |
| 2026-04-27 02:52 | 11.84063 | 123.32732 | 36925 ft | 450 kts | 146° |
| 2026-04-27 02:52 | 11.78988 | 123.36488 | 36925 ft | 450 kts | 146° |
| 2026-04-27 02:53 | 11.73910 | 123.40243 | 36925 ft | 450 kts | 146° |
| 2026-04-27 02:53 | 11.68856 | 123.43980 | 36925 ft | 451 kts | 146° |
| 2026-04-27 02:54 | 11.63779 | 123.47732 | 36925 ft | 450 kts | 146° |
| 2026-04-27 02:54 | 11.58710 | 123.51476 | 36923 ft | 448 kts | 146° |
| 2026-04-27 02:55 | 11.53680 | 123.55191 | 36925 ft | 445 kts | 146° |
| 2026-04-27 02:55 | 11.48663 | 123.58893 | 36925 ft | 445 kts | 146° |
| 2026-04-27 02:56 | 11.43640 | 123.62597 | 36924 ft | 445 kts | 146° |
| 2026-04-27 02:56 | 11.38660 | 123.66269 | 36922 ft | 445 kts | 146° |
| 2026-04-27 02:57 | 11.33624 | 123.69980 | 36920 ft | 445 kts | 146° |
| 2026-04-27 02:57 | 11.28599 | 123.73682 | 36925 ft | 445 kts | 146° |
| 2026-04-27 02:58 | 11.23593 | 123.77369 | 36925 ft | 447 kts | 145° |
| 2026-04-27 02:58 | 11.18539 | 123.81089 | 36924 ft | 448 kts | 145° |
| 2026-04-27 02:59 | 11.13143 | 123.84191 | 36925 ft | 445 kts | 161° |
| 2026-04-27 02:59 | 11.07171 | 123.85754 | 36925 ft | 443 kts | 170° |
| 2026-04-27 03:00 | 11.01098 | 123.86835 | 36927 ft | 443 kts | 172° |
| 2026-04-27 03:00 | 10.95047 | 123.87832 | 36926 ft | 443 kts | 172° |
| 2026-04-27 03:01 | 10.88954 | 123.88857 | 36925 ft | 443 kts | 172° |
| 2026-04-27 03:01 | 10.82884 | 123.89903 | 36924 ft | 442 kts | 171° |
| 2026-04-27 03:02 | 10.77828 | 123.90781 | 36925 ft | 443 kts | 171° |
| 2026-04-27 03:02 | 10.70766 | 123.92007 | 36927 ft | 443 kts | 171° |
| 2026-04-27 03:03 | 10.62669 | 123.93410 | 36925 ft | 443 kts | 171° |
| 2026-04-27 03:04 | 10.56597 | 123.94462 | 36929 ft | 443 kts | 171° |
| 2026-04-27 03:04 | 10.50521 | 123.95513 | 36930 ft | 443 kts | 171° |
| 2026-04-27 03:05 | 10.44431 | 123.96568 | 36933 ft | 444 kts | 171° |
| 2026-04-27 03:05 | 10.38379 | 123.97615 | 36935 ft | 443 kts | 172° |
| 2026-04-27 03:06 | 10.32287 | 123.98649 | 36938 ft | 443 kts | 174° |
| 2026-04-27 03:06 | 10.26145 | 123.99210 | 36933 ft | 444 kts | 177° |
| 2026-04-27 03:07 | 10.19975 | 123.99654 | 36917 ft | 444 kts | 177° |
| 2026-04-27 03:07 | 10.13801 | 124.00074 | 36914 ft | 444 kts | 177° |
| 2026-04-27 03:08 | 10.07669 | 124.00496 | 36914 ft | 445 kts | 177° |
| 2026-04-27 03:08 | 10.01489 | 124.00928 | 36915 ft | 445 kts | 177° |
| 2026-04-27 03:09 | 9.95326 | 124.01360 | 36913 ft | 443 kts | 177° |
| 2026-04-27 03:09 | 9.89188 | 124.01792 | 36913 ft | 442 kts | 177° |
| 2026-04-27 03:10 | 9.83038 | 124.02225 | 36915 ft | 442 kts | 177° |
| 2026-04-27 03:10 | 9.76935 | 124.02654 | 36909 ft | 442 kts | 177° |
| 2026-04-27 03:11 | 9.70783 | 124.03085 | 36912 ft | 443 kts | 176° |
| 2026-04-27 03:11 | 9.64634 | 124.03518 | 36908 ft | 442 kts | 176° |
| 2026-04-27 03:12 | 9.58482 | 124.03950 | 36903 ft | 442 kts | 177° |
| 2026-04-27 03:12 | 9.52378 | 124.04378 | 36907 ft | 442 kts | 177° |
| 2026-04-27 03:13 | 9.46222 | 124.04810 | 36906 ft | 442 kts | 177° |
| 2026-04-27 03:13 | 9.40094 | 124.05378 | 36903 ft | 443 kts | 170° |
| 2026-04-27 03:14 | 9.34264 | 124.07362 | 36905 ft | 443 kts | 154° |
| 2026-04-27 03:14 | 9.28821 | 124.10334 | 36903 ft | 445 kts | 151° |
| 2026-04-27 03:15 | 9.23497 | 124.13467 | 36900 ft | 445 kts | 150° |
| 2026-04-27 03:15 | 9.18138 | 124.16629 | 36900 ft | 445 kts | 150° |
| 2026-04-27 03:16 | 9.12765 | 124.19766 | 36898 ft | 445 kts | 151° |
| 2026-04-27 03:16 | 9.07433 | 124.22861 | 36898 ft | 444 kts | 151° |
| 2026-04-27 03:17 | 9.02060 | 124.25974 | 36898 ft | 445 kts | 150° |
| 2026-04-27 03:17 | 8.96680 | 124.29086 | 36895 ft | 445 kts | 151° |
| 2026-04-27 03:18 | 8.91301 | 124.32196 | 36890 ft | 445 kts | 150° |
| 2026-04-27 03:18 | 8.85915 | 124.35310 | 36892 ft | 445 kts | 151° |
| 2026-04-27 03:19 | 8.80539 | 124.38417 | 36890 ft | 445 kts | 150° |
| 2026-04-27 03:19 | 8.75195 | 124.41505 | 36888 ft | 445 kts | 150° |
| 2026-04-27 03:20 | 8.69813 | 124.44613 | 36889 ft | 446 kts | 151° |
| 2026-04-27 03:20 | 8.64417 | 124.47729 | 36887 ft | 447 kts | 151° |
| 2026-04-27 03:21 | 8.59012 | 124.50849 | 36890 ft | 448 kts | 151° |
| 2026-04-27 03:21 | 8.53594 | 124.53976 | 36895 ft | 448 kts | 150° |
| 2026-04-27 03:22 | 8.48175 | 124.57102 | 36904 ft | 448 kts | 151° |
| 2026-04-27 03:22 | 8.42812 | 124.60225 | 36902 ft | 448 kts | 147° |
| 2026-04-27 03:23 | 8.37792 | 124.63978 | 36904 ft | 449 kts | 142° |
| 2026-04-27 03:23 | 8.32903 | 124.67933 | 36921 ft | 450 kts | 141° |
| 2026-04-27 03:24 | 8.28036 | 124.71930 | 36920 ft | 451 kts | 141° |
| 2026-04-27 03:24 | 8.23162 | 124.75925 | 36927 ft | 451 kts | 142° |
| 2026-04-27 03:25 | 8.18315 | 124.79884 | 36932 ft | 450 kts | 141° |
| 2026-04-27 03:25 | 8.13439 | 124.83859 | 36938 ft | 450 kts | 142° |
| 2026-04-27 03:26 | 8.08552 | 124.87838 | 36942 ft | 451 kts | 142° |
| 2026-04-27 03:26 | 8.03665 | 124.91816 | 36940 ft | 451 kts | 141° |
| 2026-04-27 03:27 | 7.98815 | 124.95766 | 36939 ft | 450 kts | 141° |
| 2026-04-27 03:27 | 7.93938 | 124.99738 | 36934 ft | 450 kts | 141° |
| 2026-04-27 03:28 | 7.89061 | 125.03709 | 36931 ft | 450 kts | 141° |
| 2026-04-27 03:28 | 7.84179 | 125.07684 | 36925 ft | 450 kts | 141° |
| 2026-04-27 03:29 | 7.79337 | 125.11626 | 36913 ft | 450 kts | 141° |
| 2026-04-27 03:29 | 7.74459 | 125.15595 | 36914 ft | 450 kts | 141° |
| 2026-04-27 03:30 | 7.69587 | 125.19558 | 36917 ft | 449 kts | 141° |
| 2026-04-27 03:30 | 7.64719 | 125.23516 | 36912 ft | 450 kts | 141° |
| 2026-04-27 03:31 | 7.59853 | 125.27472 | 36911 ft | 449 kts | 141° |
| 2026-04-27 03:31 | 7.54987 | 125.31426 | 36909 ft | 448 kts | 141° |
| 2026-04-27 03:32 | 7.50133 | 125.35370 | 36911 ft | 448 kts | 141° |
| 2026-04-27 03:32 | 7.45278 | 125.39313 | 36910 ft | 448 kts | 141° |
| 2026-04-27 03:33 | 7.40441 | 125.43241 | 36910 ft | 449 kts | 141° |
| 2026-04-27 03:33 | 7.35565 | 125.47198 | 36908 ft | 449 kts | 141° |
| 2026-04-27 03:34 | 7.30724 | 125.51125 | 36909 ft | 449 kts | 141° |
| 2026-04-27 03:34 | 7.25866 | 125.55063 | 36911 ft | 448 kts | 141° |
| 2026-04-27 03:35 | 7.21013 | 125.58997 | 36904 ft | 447 kts | 141° |
| 2026-04-27 03:35 | 7.16160 | 125.62931 | 36915 ft | 448 kts | 141° |
| 2026-04-27 03:36 | 7.11289 | 125.66848 | 36915 ft | 448 kts | 141° |
| 2026-04-27 03:36 | 7.06392 | 125.70681 | 36915 ft | 447 kts | 142° |
| 2026-04-27 03:37 | 7.01466 | 125.74512 | 36895 ft | 447 kts | 142° |
| 2026-04-27 03:37 | 6.96555 | 125.78338 | 36894 ft | 446 kts | 142° |
| 2026-04-27 03:38 | 6.91654 | 125.82164 | 36894 ft | 445 kts | 142° |
| 2026-04-27 03:38 | 6.86784 | 125.85967 | 36892 ft | 445 kts | 142° |
| 2026-04-27 03:39 | 6.81882 | 125.89792 | 36890 ft | 445 kts | 142° |
| 2026-04-27 03:39 | 6.76981 | 125.93615 | 36888 ft | 446 kts | 142° |
| 2026-04-27 03:40 | 6.72078 | 125.97439 | 36884 ft | 445 kts | 142° |
| 2026-04-27 03:40 | 6.67183 | 126.01255 | 36887 ft | 445 kts | 142° |
| 2026-04-27 03:41 | 6.62300 | 126.05062 | 36887 ft | 444 kts | 142° |
| 2026-04-27 03:41 | 6.57439 | 126.08851 | 36887 ft | 445 kts | 142° |
| 2026-04-27 03:42 | 6.52545 | 126.12663 | 36891 ft | 445 kts | 142° |
| 2026-04-27 03:42 | 6.47651 | 126.16477 | 36885 ft | 445 kts | 142° |
| 2026-04-27 03:43 | 6.42759 | 126.20287 | 36883 ft | 445 kts | 142° |
| 2026-04-27 03:43 | 6.37864 | 126.24099 | 36878 ft | 444 kts | 142° |
| 2026-04-27 03:44 | 6.32976 | 126.27905 | 36880 ft | 444 kts | 142° |
| 2026-04-27 03:44 | 6.28091 | 126.31707 | 36878 ft | 444 kts | 142° |
| 2026-04-27 03:45 | 6.23205 | 126.35509 | 36876 ft | 445 kts | 142° |
| 2026-04-27 03:45 | 6.18337 | 126.39296 | 36875 ft | 445 kts | 142° |
| 2026-04-27 03:46 | 6.13451 | 126.43095 | 36877 ft | 444 kts | 142° |
| 2026-04-27 03:46 | 6.08562 | 126.46896 | 36873 ft | 444 kts | 142° |
| 2026-04-27 03:47 | 6.03672 | 126.50698 | 36875 ft | 444 kts | 141° |
| 2026-04-27 03:47 | 5.98781 | 126.54498 | 36874 ft | 444 kts | 141° |
| 2026-04-27 03:48 | 5.93897 | 126.58294 | 36871 ft | 444 kts | 141° |
| 2026-04-27 03:48 | 5.89026 | 126.62078 | 36869 ft | 444 kts | 141° |
| 2026-04-27 03:49 | 5.84137 | 126.65876 | 36871 ft | 444 kts | 141° |
| 2026-04-27 03:49 | 5.79256 | 126.69666 | 36871 ft | 443 kts | 141° |
| 2026-04-27 03:50 | 5.74385 | 126.73447 | 36867 ft | 442 kts | 141° |
| 2026-04-27 03:50 | 5.69520 | 126.77222 | 36864 ft | 442 kts | 141° |
| 2026-04-27 03:51 | 5.64653 | 126.81000 | 36863 ft | 442 kts | 141° |
| 2026-04-27 03:51 | 5.59816 | 126.84752 | 36864 ft | 442 kts | 141° |
| 2026-04-27 03:52 | 5.54952 | 126.88525 | 36864 ft | 442 kts | 141° |
| 2026-04-27 03:52 | 5.50087 | 126.92297 | 36864 ft | 441 kts | 141° |
| 2026-04-27 03:53 | 5.46021 | 126.95451 | 36864 ft | 441 kts | 141° |
| 2026-04-27 03:53 | 5.41187 | 126.99198 | 36861 ft | 442 kts | 141° |
| 2026-04-27 03:54 | 5.36312 | 127.02976 | 36861 ft | 442 kts | 141° |
| 2026-04-27 03:54 | 5.31434 | 127.06755 | 36856 ft | 443 kts | 141° |
| 2026-04-27 03:55 | 5.26596 | 127.10502 | 36857 ft | 442 kts | 141° |
| 2026-04-27 03:55 | 5.21728 | 127.14273 | 36855 ft | 441 kts | 141° |
| 2026-04-27 03:56 | 5.16859 | 127.18043 | 36857 ft | 441 kts | 141° |
| 2026-04-27 03:56 | 5.12002 | 127.21806 | 36857 ft | 441 kts | 141° |
| 2026-04-27 03:57 | 5.07140 | 127.25569 | 36857 ft | 442 kts | 141° |
| 2026-04-27 03:57 | 5.02265 | 127.29341 | 36856 ft | 443 kts | 141° |
| 2026-04-27 03:58 | 4.97387 | 127.33114 | 36855 ft | 442 kts | 141° |
| 2026-04-27 03:58 | 4.92520 | 127.36880 | 36857 ft | 442 kts | 141° |
| 2026-04-27 03:59 | 4.87684 | 127.40619 | 36856 ft | 441 kts | 141° |
| 2026-04-27 03:59 | 4.82819 | 127.44382 | 36856 ft | 441 kts | 141° |
| 2026-04-27 04:00 | 4.77948 | 127.48148 | 36853 ft | 442 kts | 141° |
| 2026-04-27 04:00 | 4.73072 | 127.51918 | 36857 ft | 443 kts | 141° |
| 2026-04-27 04:01 | 4.68192 | 127.55690 | 36853 ft | 443 kts | 141° |
| 2026-04-27 04:01 | 4.63335 | 127.59442 | 36850 ft | 442 kts | 141° |
| 2026-04-27 04:02 | 4.58464 | 127.63206 | 36850 ft | 442 kts | 141° |
| 2026-04-27 04:02 | 4.53590 | 127.66971 | 36851 ft | 442 kts | 141° |
| 2026-04-27 04:03 | 4.48719 | 127.70733 | 36852 ft | 442 kts | 141° |
| 2026-04-27 04:03 | 4.43835 | 127.74504 | 36848 ft | 443 kts | 141° |
| 2026-04-27 04:04 | 4.38979 | 127.78254 | 36848 ft | 443 kts | 141° |
| 2026-04-27 04:04 | 4.34081 | 127.82035 | 36848 ft | 444 kts | 141° |
| 2026-04-27 04:05 | 4.29192 | 127.85807 | 36849 ft | 443 kts | 141° |
| 2026-04-27 04:05 | 4.24307 | 127.89577 | 36849 ft | 443 kts | 141° |
| 2026-04-27 04:06 | 4.19422 | 127.93346 | 36843 ft | 443 kts | 141° |
| 2026-04-27 04:06 | 4.14541 | 127.97112 | 36843 ft | 443 kts | 141° |
| 2026-04-27 04:07 | 4.07236 | 128.02746 | 36840 ft | 443 kts | 141° |
| 2026-04-27 04:07 | 4.02342 | 128.06520 | 36840 ft | 443 kts | 141° |
| 2026-04-27 04:08 | 3.97462 | 128.10263 | 36840 ft | 443 kts | 141° |
| 2026-04-27 04:08 | 3.92538 | 128.13994 | 36840 ft | 443 kts | 141° |
| 2026-04-27 04:09 | 3.87613 | 128.17719 | 36840 ft | 443 kts | 141° |
| 2026-04-27 04:09 | 3.82697 | 128.21440 | 36840 ft | 443 kts | 141° |
| 2026-04-27 04:10 | 3.77783 | 128.25162 | 36840 ft | 443 kts | 141° |
| 2026-04-27 04:10 | 3.72887 | 128.28872 | 36840 ft | 443 kts | 141° |
| 2026-04-27 04:11 | 3.67965 | 128.32601 | 36837 ft | 443 kts | 141° |
| 2026-04-27 04:11 | 3.63043 | 128.36328 | 36837 ft | 443 kts | 141° |
| 2026-04-27 04:12 | 3.58111 | 128.40063 | 36836 ft | 443 kts | 141° |
| 2026-04-27 04:12 | 3.53226 | 128.43762 | 36834 ft | 442 kts | 141° |
| 2026-04-27 04:13 | 3.48324 | 128.47473 | 36837 ft | 442 kts | 141° |
| 2026-04-27 04:13 | 3.43418 | 128.51186 | 36837 ft | 442 kts | 141° |
| 2026-04-27 04:14 | 3.38513 | 128.54898 | 36837 ft | 442 kts | 141° |
| 2026-04-27 04:14 | 3.33604 | 128.58613 | 36837 ft | 442 kts | 141° |
| 2026-04-27 04:15 | 3.28696 | 128.62327 | 36837 ft | 442 kts | 141° |
| 2026-04-27 04:15 | 3.23817 | 128.66018 | 36833 ft | 442 kts | 141° |
| 2026-04-27 04:16 | 3.18907 | 128.69733 | 36832 ft | 442 kts | 141° |
| 2026-04-27 04:16 | 3.13999 | 128.73445 | 36832 ft | 442 kts | 141° |
| 2026-04-27 04:17 | 3.09090 | 128.77158 | 36831 ft | 442 kts | 141° |
| 2026-04-27 04:17 | 3.04183 | 128.80868 | 36832 ft | 442 kts | 141° |
| 2026-04-27 04:18 | 2.99278 | 128.84577 | 36832 ft | 442 kts | 141° |
| 2026-04-27 04:18 | 2.94405 | 128.88261 | 36830 ft | 441 kts | 141° |
| 2026-04-27 04:19 | 2.89496 | 128.91971 | 36832 ft | 441 kts | 141° |
| 2026-04-27 04:19 | 2.84600 | 128.95672 | 36832 ft | 441 kts | 141° |
| 2026-04-27 04:20 | 2.79708 | 128.99369 | 36832 ft | 441 kts | 141° |
| 2026-04-27 04:20 | 2.74835 | 129.03052 | 36832 ft | 441 kts | 141° |
| 2026-04-27 04:21 | 2.69940 | 129.06750 | 36829 ft | 441 kts | 141° |
| 2026-04-27 04:21 | 2.65044 | 129.10449 | 36829 ft | 441 kts | 141° |
| 2026-04-27 04:22 | 2.60144 | 129.14151 | 36829 ft | 441 kts | 141° |
| 2026-04-27 04:22 | 2.55236 | 129.17859 | 36829 ft | 441 kts | 141° |
| 2026-04-27 04:23 | 2.50333 | 129.21562 | 36826 ft | 442 kts | 141° |
| 2026-04-27 04:23 | 2.45457 | 129.25244 | 36827 ft | 442 kts | 141° |
| 2026-04-27 04:24 | 2.40550 | 129.28950 | 36826 ft | 441 kts | 141° |
| 2026-04-27 04:24 | 2.35645 | 129.32653 | 36827 ft | 442 kts | 141° |
| 2026-04-27 04:25 | 2.30738 | 129.36358 | 36826 ft | 442 kts | 141° |
| 2026-04-27 04:25 | 2.25831 | 129.40063 | 36826 ft | 442 kts | 141° |
| 2026-04-27 04:26 | 2.20917 | 129.43772 | 36820 ft | 442 kts | 141° |
| 2026-04-27 04:26 | 2.16032 | 129.47460 | 36821 ft | 442 kts | 141° |
| 2026-04-27 04:27 | 2.11122 | 129.51165 | 36823 ft | 442 kts | 141° |
| 2026-04-27 04:27 | 2.06209 | 129.54873 | 36824 ft | 442 kts | 141° |
| 2026-04-27 04:28 | 2.01306 | 129.58573 | 36823 ft | 440 kts | 141° |
| 2026-04-27 04:28 | 1.96410 | 129.62270 | 36824 ft | 440 kts | 141° |
| 2026-04-27 04:29 | 1.91620 | 129.66034 | 36823 ft | 440 kts | 140° |
| 2026-04-27 04:29 | 1.86856 | 129.69876 | 36823 ft | 440 kts | 140° |
| 2026-04-27 04:30 | 1.82080 | 129.73728 | 36823 ft | 440 kts | 140° |
| 2026-04-27 04:30 | 1.77336 | 129.77539 | 36824 ft | 440 kts | 140° |
| 2026-04-27 04:31 | 1.72564 | 129.81364 | 36820 ft | 438 kts | 140° |
| 2026-04-27 04:31 | 1.67808 | 129.85175 | 36821 ft | 437 kts | 140° |
| 2026-04-27 04:32 | 1.63091 | 129.88954 | 36820 ft | 437 kts | 140° |
| 2026-04-27 04:32 | 1.58346 | 129.92756 | 36820 ft | 437 kts | 140° |
| 2026-04-27 04:33 | 1.53597 | 129.96562 | 36821 ft | 437 kts | 140° |
| 2026-04-27 04:33 | 1.48848 | 130.00367 | 36821 ft | 437 kts | 140° |
| 2026-04-27 04:34 | 1.44104 | 130.04168 | 36823 ft | 437 kts | 140° |
| 2026-04-27 04:34 | 1.39359 | 130.07969 | 36824 ft | 436 kts | 140° |
| 2026-04-27 04:35 | 1.34613 | 130.11771 | 36821 ft | 436 kts | 140° |
| 2026-04-27 04:35 | 1.29905 | 130.15542 | 36820 ft | 436 kts | 140° |
| 2026-04-27 04:36 | 1.25158 | 130.19345 | 36820 ft | 436 kts | 140° |
| 2026-04-27 04:36 | 1.20420 | 130.23140 | 36821 ft | 437 kts | 140° |
| 2026-04-27 04:37 | 1.15698 | 130.26922 | 36821 ft | 437 kts | 140° |
| 2026-04-27 04:37 | 1.10953 | 130.30723 | 36821 ft | 437 kts | 140° |
| 2026-04-27 04:38 | 1.06212 | 130.34519 | 36821 ft | 437 kts | 140° |
| 2026-04-27 04:38 | 1.01472 | 130.38315 | 36821 ft | 437 kts | 140° |
| 2026-04-27 04:39 | 0.96750 | 130.42097 | 36818 ft | 437 kts | 140° |
| 2026-04-27 04:39 | 0.92001 | 130.45899 | 36818 ft | 437 kts | 140° |
| 2026-04-27 04:40 | 0.87251 | 130.49703 | 36818 ft | 437 kts | 140° |
| 2026-04-27 04:40 | 0.82504 | 130.53504 | 36818 ft | 437 kts | 140° |
| 2026-04-27 04:41 | 0.77798 | 130.57272 | 36821 ft | 436 kts | 140° |
| 2026-04-27 04:41 | 0.73052 | 130.61072 | 36821 ft | 436 kts | 140° |
| 2026-04-27 04:42 | 0.69113 | 130.64226 | 36821 ft | 436 kts | 140° |
| 2026-04-27 04:42 | 0.64374 | 130.68020 | 36821 ft | 436 kts | 140° |
| 2026-04-27 04:43 | 0.59632 | 130.71817 | 36818 ft | 436 kts | 140° |
| 2026-04-27 04:43 | 0.54899 | 130.75606 | 36818 ft | 436 kts | 140° |
| 2026-04-27 04:44 | 0.50172 | 130.79390 | 36818 ft | 435 kts | 140° |
| 2026-04-27 04:44 | 0.45442 | 130.83177 | 36818 ft | 435 kts | 140° |
| 2026-04-27 04:45 | 0.40717 | 130.86960 | 36818 ft | 435 kts | 140° |
| 2026-04-27 04:45 | 0.35989 | 130.90744 | 36821 ft | 435 kts | 140° |
| 2026-04-27 04:46 | 0.31285 | 130.94510 | 36814 ft | 437 kts | 140° |
| 2026-04-27 04:46 | 0.26536 | 130.98313 | 36819 ft | 438 kts | 140° |
| 2026-04-27 04:47 | 0.21774 | 131.02124 | 36822 ft | 438 kts | 140° |
| 2026-04-27 04:47 | 0.17014 | 131.05934 | 36818 ft | 438 kts | 140° |
| 2026-04-27 04:48 | 0.12260 | 131.09740 | 36819 ft | 438 kts | 140° |
| 2026-04-27 04:48 | 0.07535 | 131.13523 | 36814 ft | 438 kts | 140° |
| 2026-04-27 04:49 | 0.02775 | 131.17333 | 36819 ft | 439 kts | 140° |
| 2026-04-27 04:49 | -0.01990 | 131.21147 | 36818 ft | 439 kts | 140° |
| 2026-04-27 04:50 | -0.06760 | 131.24965 | 36819 ft | 438 kts | 140° |
| 2026-04-27 04:50 | -0.11520 | 131.28776 | 36819 ft | 438 kts | 140° |
| 2026-04-27 04:51 | -0.16281 | 131.32587 | 36814 ft | 438 kts | 140° |
| 2026-04-27 04:51 | -0.21045 | 131.36401 | 36814 ft | 439 kts | 140° |
| 2026-04-27 04:52 | -0.25783 | 131.40194 | 36815 ft | 439 kts | 140° |
| 2026-04-27 04:52 | -0.30569 | 131.44025 | 36815 ft | 439 kts | 140° |
| 2026-04-27 04:53 | -0.35335 | 131.47840 | 36813 ft | 438 kts | 140° |
| 2026-04-27 04:53 | -0.40063 | 131.51625 | 36813 ft | 438 kts | 140° |
| 2026-04-27 04:54 | -0.44824 | 131.55436 | 36808 ft | 438 kts | 140° |
| 2026-04-27 04:54 | -0.49581 | 131.59245 | 36811 ft | 438 kts | 140° |
| 2026-04-27 04:55 | -0.54339 | 131.63054 | 36813 ft | 438 kts | 140° |
| 2026-04-27 04:55 | -0.59099 | 131.66864 | 36814 ft | 438 kts | 140° |
| 2026-04-27 04:56 | -0.63831 | 131.70653 | 36813 ft | 437 kts | 140° |
| 2026-04-27 04:56 | -0.68582 | 131.74457 | 36813 ft | 437 kts | 140° |
| 2026-04-27 04:57 | -0.73334 | 131.78262 | 36817 ft | 437 kts | 140° |
| 2026-04-27 04:57 | -0.78056 | 131.82043 | 36816 ft | 437 kts | 140° |
| 2026-04-27 04:58 | -0.82809 | 131.85848 | 36814 ft | 437 kts | 140° |
| 2026-04-27 04:58 | -0.87558 | 131.89652 | 36817 ft | 438 kts | 140° |
| 2026-04-27 04:59 | -0.92320 | 131.93464 | 36812 ft | 439 kts | 140° |
| 2026-04-27 04:59 | -0.97098 | 131.97290 | 36822 ft | 439 kts | 140° |
| 2026-04-27 05:00 | -1.01861 | 132.01104 | 36823 ft | 439 kts | 140° |
| 2026-04-27 05:00 | -1.06593 | 132.04893 | 36821 ft | 438 kts | 140° |
| 2026-04-27 05:01 | -1.11351 | 132.08704 | 36815 ft | 438 kts | 140° |
| 2026-04-27 05:01 | -1.16123 | 132.12527 | 36817 ft | 438 kts | 140° |
| 2026-04-27 05:02 | -1.20884 | 132.16340 | 36813 ft | 438 kts | 140° |
| 2026-04-27 05:03 | -1.28031 | 132.22064 | 36811 ft | 438 kts | 140° |
| 2026-04-27 05:03 | -1.32796 | 132.25880 | 36808 ft | 438 kts | 140° |
| 2026-04-27 05:04 | -1.37527 | 132.29671 | 36807 ft | 438 kts | 140° |
| 2026-04-27 05:04 | -1.42286 | 132.33484 | 36805 ft | 438 kts | 140° |
| 2026-04-27 05:05 | -1.47058 | 132.37307 | 36802 ft | 438 kts | 140° |
| 2026-04-27 05:05 | -1.51815 | 132.41119 | 36799 ft | 438 kts | 140° |
| 2026-04-27 05:06 | -1.56574 | 132.44931 | 36801 ft | 438 kts | 140° |
| 2026-04-27 05:06 | -1.61308 | 132.48725 | 36798 ft | 438 kts | 140° |
| 2026-04-27 05:07 | -1.66065 | 132.52537 | 36796 ft | 438 kts | 140° |
| 2026-04-27 05:07 | -1.70828 | 132.56354 | 36797 ft | 438 kts | 140° |
| 2026-04-27 05:08 | -1.75589 | 132.60170 | 36798 ft | 438 kts | 140° |
| 2026-04-27 05:08 | -1.80324 | 132.63965 | 36797 ft | 438 kts | 140° |
| 2026-04-27 05:09 | -1.85099 | 132.67792 | 36796 ft | 439 kts | 140° |
| 2026-04-27 05:09 | -1.89857 | 132.71606 | 36793 ft | 439 kts | 140° |
| 2026-04-27 05:10 | -1.94620 | 132.75425 | 36794 ft | 439 kts | 140° |
| 2026-04-27 05:10 | -1.99381 | 132.79243 | 36793 ft | 439 kts | 141° |
| 2026-04-27 05:11 | -2.04149 | 132.83066 | 36794 ft | 438 kts | 141° |
| 2026-04-27 05:11 | -2.08870 | 132.86850 | 36793 ft | 437 kts | 141° |
| 2026-04-27 05:12 | -2.13617 | 132.90658 | 36794 ft | 438 kts | 141° |
| 2026-04-27 05:12 | -2.18370 | 132.94469 | 36794 ft | 438 kts | 141° |
| 2026-04-27 05:13 | -2.23118 | 132.98278 | 36796 ft | 437 kts | 141° |
| 2026-04-27 05:13 | -2.27861 | 133.02082 | 36800 ft | 437 kts | 141° |
| 2026-04-27 05:14 | -2.32607 | 133.05889 | 36791 ft | 437 kts | 141° |
| 2026-04-27 05:14 | -2.37357 | 133.09700 | 36794 ft | 438 kts | 141° |
| 2026-04-27 05:15 | -2.42103 | 133.13509 | 36792 ft | 438 kts | 141° |
| 2026-04-27 05:15 | -2.46854 | 133.17321 | 36797 ft | 438 kts | 141° |
| 2026-04-27 05:16 | -2.51607 | 133.21135 | 36795 ft | 438 kts | 141° |
| 2026-04-27 05:16 | -2.56330 | 133.24925 | 36793 ft | 438 kts | 141° |
| 2026-04-27 05:17 | -2.61093 | 133.28748 | 36793 ft | 439 kts | 141° |
| 2026-04-27 05:17 | -2.65870 | 133.32583 | 36794 ft | 439 kts | 141° |
| 2026-04-27 05:17 | -2.68220 | 133.34469 | 36792 ft | 428 kts | 141° |
| 2026-04-27 05:18 | -2.70511 | 133.36308 | 36795 ft | 416 kts | 141° |
| 2026-04-27 05:18 | -2.74962 | 133.39882 | 36796 ft | 409 kts | 141° |
| 2026-04-27 05:19 | -2.79405 | 133.43450 | 36792 ft | 409 kts | 141° |
| 2026-04-27 05:19 | -2.83808 | 133.46987 | 36795 ft | 408 kts | 141° |
| 2026-04-27 05:20 | -2.88237 | 133.50544 | 36796 ft | 408 kts | 141° |
| 2026-04-27 05:20 | -2.92671 | 133.54105 | 36796 ft | 408 kts | 141° |
| 2026-04-27 05:21 | -2.97097 | 133.57661 | 36794 ft | 408 kts | 141° |
| 2026-04-27 05:21 | -3.01657 | 133.61052 | 36800 ft | 408 kts | 150° |
| 2026-04-27 05:22 | -3.06946 | 133.63025 | 36796 ft | 409 kts | 170° |
| 2026-04-27 05:22 | -3.09755 | 133.63235 | 36799 ft | 410 kts | 181° |
| 2026-04-27 05:22 | -3.12585 | 133.62873 | 36801 ft | 412 kts | 193° |
| 2026-04-27 05:22 | -3.15302 | 133.61952 | 36799 ft | 414 kts | 204° |
| 2026-04-27 05:23 | -3.17799 | 133.60499 | 36803 ft | 416 kts | 215° |
| 2026-04-27 05:23 | -3.19963 | 133.58570 | 36802 ft | 418 kts | 227° |
| 2026-04-27 05:23 | -3.21709 | 133.56236 | 36804 ft | 420 kts | 238° |
| 2026-04-27 05:23 | -3.22965 | 133.53583 | 36804 ft | 422 kts | 250° |
| 2026-04-27 05:24 | -3.23662 | 133.50766 | 36807 ft | 424 kts | 262° |
| 2026-04-27 05:24 | -3.23791 | 133.47810 | 36805 ft | 425 kts | 273° |
| 2026-04-27 05:24 | -3.23323 | 133.44886 | 36805 ft | 426 kts | 285° |
| 2026-04-27 05:24 | -3.22270 | 133.42112 | 36799 ft | 427 kts | 297° |
| 2026-04-27 05:25 | -3.20669 | 133.39613 | 36799 ft | 427 kts | 309° |
| 2026-04-27 05:25 | -3.16354 | 133.35533 | 36798 ft | 429 kts | 320° |
| 2026-04-27 05:26 | -3.11769 | 133.31689 | 36800 ft | 430 kts | 320° |
| 2026-04-27 05:26 | -3.07216 | 133.27854 | 36798 ft | 430 kts | 320° |
| 2026-04-27 05:27 | -3.02589 | 133.24049 | 36798 ft | 430 kts | 321° |
| 2026-04-27 05:27 | -2.97933 | 133.20294 | 36792 ft | 430 kts | 321° |
| 2026-04-27 05:28 | -2.93288 | 133.16534 | 36795 ft | 430 kts | 321° |
| 2026-04-27 05:28 | -2.88642 | 133.12758 | 36792 ft | 430 kts | 321° |
| 2026-04-27 05:29 | -2.83811 | 133.09329 | 36793 ft | 428 kts | 334° |
| 2026-04-27 05:29 | -2.81055 | 133.08227 | 36793 ft | 426 kts | 346° |
| 2026-04-27 05:29 | -2.78146 | 133.07699 | 36798 ft | 424 kts | 358° |
| 2026-04-27 05:29 | -2.75198 | 133.07763 | 36794 ft | 422 kts | 9° |
| 2026-04-27 05:30 | -2.72338 | 133.08402 | 36793 ft | 420 kts | 20° |
| 2026-04-27 05:30 | -2.69677 | 133.09586 | 36791 ft | 418 kts | 32° |
| 2026-04-27 05:30 | -2.67308 | 133.11260 | 36791 ft | 416 kts | 43° |
| 2026-04-27 05:31 | -2.63794 | 133.15745 | 36788 ft | 413 kts | 65° |
| 2026-04-27 05:31 | -2.62752 | 133.18405 | 36789 ft | 411 kts | 76° |
| 2026-04-27 05:31 | -2.62248 | 133.21206 | 36792 ft | 409 kts | 87° |
| 2026-04-27 05:31 | -2.62294 | 133.24047 | 36789 ft | 408 kts | 98° |
| 2026-04-27 05:32 | -2.62886 | 133.26817 | 36792 ft | 408 kts | 109° |
| 2026-04-27 05:32 | -2.65029 | 133.31037 | 36788 ft | 407 kts | 127° |
| 2026-04-27 05:33 | -2.69012 | 133.35006 | 36789 ft | 409 kts | 140° |
| 2026-04-27 05:33 | -2.73446 | 133.38593 | 36787 ft | 410 kts | 141° |
| 2026-04-27 05:34 | -2.77924 | 133.42133 | 36784 ft | 410 kts | 141° |
| 2026-04-27 05:34 | -2.82377 | 133.45699 | 36788 ft | 408 kts | 141° |
| 2026-04-27 05:35 | -2.86760 | 133.49246 | 36790 ft | 408 kts | 141° |
| 2026-04-27 05:35 | -2.91175 | 133.52830 | 36794 ft | 408 kts | 140° |
| 2026-04-27 05:36 | -2.95592 | 133.56417 | 36793 ft | 408 kts | 141° |
| 2026-04-27 05:36 | -2.99996 | 133.59959 | 36794 ft | 408 kts | 144° |
| 2026-04-27 05:37 | -3.05025 | 133.62563 | 36794 ft | 408 kts | 162° |
| 2026-04-27 05:37 | -3.07807 | 133.63152 | 36794 ft | 409 kts | 173° |
| 2026-04-27 05:37 | -3.10622 | 133.63187 | 36798 ft | 411 kts | 185° |
| 2026-04-27 05:37 | -3.13428 | 133.62651 | 36796 ft | 413 kts | 196° |
| 2026-04-27 05:38 | -3.16091 | 133.61565 | 36797 ft | 415 kts | 207° |
| 2026-04-27 05:38 | -3.18499 | 133.59964 | 36802 ft | 417 kts | 219° |
| 2026-04-27 05:38 | -3.20546 | 133.57906 | 36798 ft | 419 kts | 230° |
| 2026-04-27 05:38 | -3.22149 | 133.55470 | 36802 ft | 421 kts | 242° |
| 2026-04-27 05:39 | -3.23243 | 133.52743 | 36803 ft | 423 kts | 253° |
| 2026-04-27 05:39 | -3.23773 | 133.49846 | 36800 ft | 424 kts | 265° |
| 2026-04-27 05:39 | -3.23718 | 133.46928 | 36798 ft | 426 kts | 277° |
| 2026-04-27 05:39 | -3.23070 | 133.44032 | 36796 ft | 427 kts | 289° |
| 2026-04-27 05:40 | -3.21849 | 133.41325 | 36799 ft | 427 kts | 301° |
| 2026-04-27 05:40 | -3.20093 | 133.38919 | 36793 ft | 427 kts | 313° |
| 2026-04-27 05:40 | -3.17939 | 133.36867 | 36794 ft | 428 kts | 319° |
| 2026-04-27 05:41 | -3.13382 | 133.33016 | 36790 ft | 429 kts | 320° |
| 2026-04-27 05:41 | -3.08821 | 133.29197 | 36792 ft | 430 kts | 320° |
| 2026-04-27 05:42 | -3.04211 | 133.25377 | 36790 ft | 430 kts | 321° |
| 2026-04-27 05:42 | -2.99568 | 133.21606 | 36790 ft | 430 kts | 321° |
| 2026-04-27 05:43 | -2.94924 | 133.17842 | 36788 ft | 429 kts | 321° |
| 2026-04-27 05:43 | -2.90281 | 133.14079 | 36789 ft | 429 kts | 321° |
| 2026-04-27 05:44 | -2.85617 | 133.10403 | 36793 ft | 429 kts | 327° |
| 2026-04-27 05:44 | -2.82995 | 133.08939 | 36794 ft | 427 kts | 338° |
| 2026-04-27 05:44 | -2.80220 | 133.08011 | 36789 ft | 426 kts | 349° |
| 2026-04-27 05:44 | -2.77291 | 133.07654 | 36784 ft | 424 kts | 1° |
| 2026-04-27 05:45 | -2.74367 | 133.07893 | 36789 ft | 422 kts | 13° |
| 2026-04-27 05:45 | -2.71554 | 133.08704 | 36789 ft | 420 kts | 24° |
| 2026-04-27 05:45 | -2.68959 | 133.10042 | 36789 ft | 418 kts | 35° |
| 2026-04-27 05:45 | -2.66689 | 133.11841 | 36784 ft | 416 kts | 46° |
| 2026-04-27 05:46 | -2.64818 | 133.14036 | 36787 ft | 414 kts | 57° |
| 2026-04-27 05:46 | -2.63418 | 133.16539 | 36789 ft | 412 kts | 69° |
| 2026-04-27 05:46 | -2.62535 | 133.19258 | 36786 ft | 410 kts | 80° |
| 2026-04-27 05:46 | -2.62199 | 133.22086 | 36784 ft | 409 kts | 91° |
| 2026-04-27 05:47 | -2.62411 | 133.24884 | 36782 ft | 408 kts | 101° |
| 2026-04-27 05:47 | -2.63163 | 133.27615 | 36780 ft | 407 kts | 112° |
| 2026-04-27 05:47 | -2.64423 | 133.30144 | 36782 ft | 407 kts | 123° |
| 2026-04-27 05:47 | -2.66148 | 133.32389 | 36783 ft | 407 kts | 134° |
| 2026-04-27 05:48 | -2.68221 | 133.34327 | 36782 ft | 408 kts | 139° |
| 2026-04-27 05:48 | -2.72622 | 133.37941 | 36785 ft | 409 kts | 141° |
| 2026-04-27 05:49 | -2.77094 | 133.41474 | 36784 ft | 409 kts | 141° |
| 2026-04-27 05:49 | -2.81519 | 133.45007 | 36784 ft | 408 kts | 141° |
| 2026-04-27 05:50 | -2.85935 | 133.48577 | 36779 ft | 408 kts | 141° |
| 2026-04-27 05:50 | -2.90339 | 133.52151 | 36789 ft | 408 kts | 140° |
| 2026-04-27 05:51 | -2.94748 | 133.55732 | 36787 ft | 408 kts | 140° |
| 2026-04-27 05:51 | -2.99158 | 133.59310 | 36787 ft | 408 kts | 141° |
| 2026-04-27 05:52 | -3.04020 | 133.62209 | 36785 ft | 408 kts | 159° |
| 2026-04-27 05:52 | -3.09543 | 133.63241 | 36788 ft | 410 kts | 180° |
| 2026-04-27 05:52 | -3.12384 | 133.62920 | 36796 ft | 412 kts | 192° |
| 2026-04-27 05:53 | -3.15112 | 133.62040 | 36799 ft | 414 kts | 203° |
| 2026-04-27 05:53 | -3.17631 | 133.60630 | 36798 ft | 416 kts | 214° |
| 2026-04-27 05:53 | -3.19826 | 133.58738 | 36794 ft | 418 kts | 226° |
| 2026-04-27 05:53 | -3.21607 | 133.56435 | 36795 ft | 420 kts | 237° |
| 2026-04-27 05:54 | -3.22900 | 133.53811 | 36799 ft | 422 kts | 249° |
| 2026-04-27 05:54 | -3.23646 | 133.50964 | 36797 ft | 424 kts | 261° |
| 2026-04-27 05:54 | -3.23810 | 133.48017 | 36795 ft | 426 kts | 272° |
| 2026-04-27 05:54 | -3.23380 | 133.45083 | 36795 ft | 427 kts | 284° |
| 2026-04-27 05:55 | -3.22369 | 133.42291 | 36795 ft | 427 kts | 296° |
| 2026-04-27 05:55 | -3.20812 | 133.39762 | 36790 ft | 428 kts | 308° |
| 2026-04-27 05:55 | -3.18806 | 133.37618 | 36794 ft | 427 kts | 318° |
| 2026-04-27 05:56 | -3.14279 | 133.33740 | 36788 ft | 429 kts | 320° |
| 2026-04-27 05:56 | -3.09682 | 133.29905 | 36787 ft | 430 kts | 320° |
| 2026-04-27 05:57 | -3.05080 | 133.26081 | 36791 ft | 430 kts | 321° |
| 2026-04-27 05:57 | -3.00433 | 133.22303 | 36791 ft | 430 kts | 321° |
| 2026-04-27 05:58 | -2.95823 | 133.18548 | 36788 ft | 429 kts | 321° |
| 2026-04-27 05:58 | -2.91180 | 133.14792 | 36787 ft | 429 kts | 321° |
| 2026-04-27 05:59 | -2.86512 | 133.11048 | 36784 ft | 429 kts | 324° |
| 2026-04-27 05:59 | -2.81265 | 133.08292 | 36783 ft | 426 kts | 345° |
| 2026-04-27 05:59 | -2.78369 | 133.07710 | 36793 ft | 424 kts | 356° |
| 2026-04-27 06:00 | -2.72594 | 133.08336 | 36789 ft | 420 kts | 20° |
| 2026-04-27 06:00 | -2.69908 | 133.09488 | 36784 ft | 419 kts | 31° |
| 2026-04-27 06:00 | -2.67510 | 133.11119 | 36784 ft | 417 kts | 42° |
| 2026-04-27 06:01 | -2.65477 | 133.13172 | 36785 ft | 415 kts | 53° |
| 2026-04-27 06:01 | -2.63888 | 133.15570 | 36782 ft | 413 kts | 64° |
| 2026-04-27 06:01 | -2.62806 | 133.18212 | 36785 ft | 411 kts | 76° |
| 2026-04-27 06:01 | -2.62260 | 133.21012 | 36782 ft | 409 kts | 86° |
| 2026-04-27 06:02 | -2.62269 | 133.23853 | 36778 ft | 408 kts | 97° |
| 2026-04-27 06:02 | -2.62825 | 133.26627 | 36777 ft | 407 kts | 108° |
| 2026-04-27 06:02 | -2.63904 | 133.29244 | 36783 ft | 407 kts | 119° |
| 2026-04-27 06:02 | -2.65444 | 133.31579 | 36780 ft | 407 kts | 130° |
| 2026-04-27 06:03 | -2.69568 | 133.35473 | 36780 ft | 408 kts | 140° |
| 2026-04-27 06:03 | -2.74002 | 133.39032 | 36779 ft | 409 kts | 141° |
| 2026-04-27 06:04 | -2.78468 | 133.42565 | 36778 ft | 409 kts | 141° |
| 2026-04-27 06:04 | -2.82901 | 133.46121 | 36782 ft | 408 kts | 141° |
| 2026-04-27 06:05 | -2.87305 | 133.49688 | 36781 ft | 408 kts | 140° |
| 2026-04-27 06:05 | -2.91687 | 133.53246 | 36787 ft | 408 kts | 140° |
| 2026-04-27 06:06 | -2.96095 | 133.56825 | 36787 ft | 408 kts | 140° |
| 2026-04-27 06:06 | -3.00515 | 133.60394 | 36786 ft | 408 kts | 141° |
| 2026-04-27 06:07 | -3.05027 | 133.63843 | 36783 ft | 408 kts | 142° |
| 2026-04-27 06:07 | -3.09577 | 133.67241 | 36797 ft | 409 kts | 143° |
| 2026-04-27 06:08 | -3.14132 | 133.70651 | 36794 ft | 409 kts | 142° |
| 2026-04-27 06:08 | -3.18653 | 133.74054 | 36796 ft | 409 kts | 142° |
| 2026-04-27 06:09 | -3.23200 | 133.77484 | 36804 ft | 409 kts | 142° |
| 2026-04-27 06:09 | -3.27742 | 133.80910 | 36804 ft | 408 kts | 142° |
| 2026-04-27 06:10 | -3.32282 | 133.84336 | 36818 ft | 409 kts | 142° |
| 2026-04-27 06:10 | -3.36828 | 133.87766 | 36815 ft | 409 kts | 142° |
| 2026-04-27 06:11 | -3.41378 | 133.91199 | 36821 ft | 409 kts | 142° |
| 2026-04-27 06:11 | -3.45897 | 133.94609 | 36821 ft | 409 kts | 142° |
| 2026-04-27 06:12 | -3.50438 | 133.98036 | 36818 ft | 409 kts | 142° |
| 2026-04-27 06:12 | -3.54987 | 134.01470 | 36824 ft | 409 kts | 142° |
| 2026-04-27 06:13 | -3.59522 | 134.04893 | 36827 ft | 409 kts | 142° |
| 2026-04-27 06:13 | -3.64082 | 134.08335 | 36822 ft | 410 kts | 142° |
| 2026-04-27 06:14 | -3.68633 | 134.11772 | 36828 ft | 410 kts | 142° |
| 2026-04-27 06:14 | -3.73162 | 134.15192 | 36822 ft | 410 kts | 142° |
| 2026-04-27 06:15 | -3.77713 | 134.18629 | 36822 ft | 409 kts | 142° |
| 2026-04-27 06:15 | -3.82265 | 134.22068 | 36815 ft | 409 kts | 142° |
| 2026-04-27 06:16 | -3.86785 | 134.25484 | 36824 ft | 410 kts | 143° |
| 2026-04-27 06:16 | -3.91338 | 134.28924 | 36823 ft | 409 kts | 143° |
| 2026-04-27 06:17 | -3.95882 | 134.32357 | 36816 ft | 409 kts | 143° |
| 2026-04-27 06:17 | -4.00431 | 134.35794 | 36815 ft | 410 kts | 143° |
| 2026-04-27 06:18 | -4.04989 | 134.39240 | 36811 ft | 410 kts | 143° |
| 2026-04-27 06:18 | -4.09540 | 134.42681 | 36814 ft | 410 kts | 143° |
| 2026-04-27 06:19 | -4.14089 | 134.46121 | 36810 ft | 410 kts | 143° |
| 2026-04-27 06:19 | -4.18615 | 134.49544 | 36810 ft | 409 kts | 143° |
| 2026-04-27 06:20 | -4.23160 | 134.52981 | 36810 ft | 409 kts | 143° |
| 2026-04-27 06:20 | -4.27709 | 134.56422 | 36808 ft | 410 kts | 143° |
| 2026-04-27 06:21 | -4.31542 | 134.59322 | 36805 ft | 419 kts | 143° |
| 2026-04-27 06:21 | -4.36262 | 134.62893 | 36805 ft | 430 kts | 143° |
| 2026-04-27 06:22 | -4.41090 | 134.66546 | 36808 ft | 441 kts | 143° |
| 2026-04-27 06:22 | -4.46006 | 134.70267 | 36808 ft | 448 kts | 143° |
| 2026-04-27 06:23 | -4.50975 | 134.74029 | 36813 ft | 447 kts | 143° |
| 2026-04-27 06:23 | -4.55941 | 134.77789 | 36813 ft | 448 kts | 143° |
| 2026-04-27 06:24 | -4.60921 | 134.81561 | 36810 ft | 449 kts | 143° |
| 2026-04-27 06:24 | -4.65921 | 134.85349 | 36810 ft | 450 kts | 143° |
| 2026-04-27 06:25 | -4.70917 | 134.89135 | 36809 ft | 449 kts | 143° |
| 2026-04-27 06:25 | -4.75891 | 134.92903 | 36811 ft | 448 kts | 143° |
| 2026-04-27 06:26 | -4.80838 | 134.96651 | 36811 ft | 448 kts | 143° |
| 2026-04-27 06:26 | -4.85827 | 135.00433 | 36812 ft | 449 kts | 143° |
| 2026-04-27 06:27 | -4.90831 | 135.04228 | 36812 ft | 450 kts | 143° |
| 2026-04-27 06:27 | -4.95796 | 135.07993 | 36812 ft | 450 kts | 143° |
| 2026-04-27 06:28 | -5.00777 | 135.11771 | 36813 ft | 449 kts | 143° |
| 2026-04-27 06:28 | -5.05762 | 135.15552 | 36811 ft | 448 kts | 143° |
| 2026-04-27 06:29 | -5.10732 | 135.19324 | 36814 ft | 447 kts | 143° |
| 2026-04-27 06:29 | -5.15711 | 135.23102 | 36814 ft | 449 kts | 143° |
| 2026-04-27 06:30 | -5.20694 | 135.26885 | 36814 ft | 449 kts | 143° |
| 2026-04-27 06:30 | -5.25628 | 135.30631 | 36816 ft | 447 kts | 143° |
| 2026-04-27 06:31 | -5.30592 | 135.34400 | 36812 ft | 448 kts | 143° |
| 2026-04-27 06:31 | -5.35576 | 135.38186 | 36812 ft | 448 kts | 143° |
| 2026-04-27 06:32 | -5.40549 | 135.41964 | 36812 ft | 447 kts | 143° |
| 2026-04-27 06:32 | -5.45492 | 135.45719 | 36812 ft | 449 kts | 142° |
| 2026-04-27 06:33 | -5.50488 | 135.49517 | 36814 ft | 450 kts | 142° |
| 2026-04-27 06:33 | -5.55473 | 135.53306 | 36815 ft | 449 kts | 142° |
| 2026-04-27 06:34 | -5.60460 | 135.57098 | 36815 ft | 450 kts | 142° |
| 2026-04-27 06:34 | -5.65429 | 135.60877 | 36815 ft | 451 kts | 142° |
| 2026-04-27 06:35 | -5.70435 | 135.64686 | 36815 ft | 452 kts | 142° |
| 2026-04-27 06:35 | -5.75448 | 135.68498 | 36815 ft | 451 kts | 142° |
| 2026-04-27 06:36 | -5.80448 | 135.72304 | 36815 ft | 450 kts | 142° |
| 2026-04-27 06:36 | -5.85406 | 135.76078 | 36815 ft | 450 kts | 142° |
| 2026-04-27 06:37 | -5.90397 | 135.79879 | 36815 ft | 450 kts | 142° |
| 2026-04-27 06:37 | -5.95392 | 135.83682 | 36815 ft | 448 kts | 142° |
| 2026-04-27 06:38 | -6.00356 | 135.87463 | 36816 ft | 447 kts | 142° |
| 2026-04-27 06:38 | -6.05322 | 135.91247 | 36816 ft | 450 kts | 141° |
| 2026-04-27 06:39 | -6.10295 | 135.95038 | 36815 ft | 451 kts | 142° |
| 2026-04-27 06:39 | -6.15308 | 135.98859 | 36816 ft | 452 kts | 142° |
| 2026-04-27 06:40 | -6.20312 | 136.02674 | 36815 ft | 451 kts | 142° |
| 2026-04-27 06:40 | -6.25294 | 136.06474 | 36818 ft | 452 kts | 142° |
| 2026-04-27 06:41 | -6.30298 | 136.10291 | 36818 ft | 452 kts | 142° |
| 2026-04-27 06:41 | -6.35325 | 136.14126 | 36818 ft | 455 kts | 142° |
| 2026-04-27 06:42 | -6.40388 | 136.17991 | 36821 ft | 457 kts | 142° |
| 2026-04-27 06:42 | -6.45464 | 136.21868 | 36821 ft | 458 kts | 142° |
| 2026-04-27 06:43 | -6.50546 | 136.25747 | 36821 ft | 458 kts | 142° |
| 2026-04-27 06:43 | -6.55626 | 136.29626 | 36821 ft | 459 kts | 142° |
| 2026-04-27 06:44 | -6.60715 | 136.33514 | 36820 ft | 459 kts | 142° |
| 2026-04-27 06:44 | -6.65809 | 136.37407 | 36824 ft | 459 kts | 142° |
| 2026-04-27 06:45 | -6.70855 | 136.41264 | 36821 ft | 458 kts | 142° |
| 2026-04-27 06:45 | -6.75938 | 136.45150 | 36824 ft | 458 kts | 142° |
| 2026-04-27 06:46 | -6.81012 | 136.49031 | 36821 ft | 457 kts | 142° |
| 2026-04-27 06:46 | -6.86074 | 136.52904 | 36821 ft | 457 kts | 142° |
| 2026-04-27 06:47 | -6.91111 | 136.56758 | 36819 ft | 458 kts | 142° |
| 2026-04-27 06:47 | -6.96193 | 136.60649 | 36819 ft | 458 kts | 142° |
| 2026-04-27 06:48 | -7.01274 | 136.64539 | 36822 ft | 457 kts | 142° |
| 2026-04-27 06:48 | -7.06312 | 136.68398 | 36820 ft | 458 kts | 142° |
| 2026-04-27 06:49 | -7.11394 | 136.72291 | 36821 ft | 458 kts | 142° |
| 2026-04-27 06:49 | -7.16460 | 136.76174 | 36821 ft | 457 kts | 142° |
| 2026-04-27 06:50 | -7.21540 | 136.80067 | 36823 ft | 459 kts | 142° |
| 2026-04-27 06:50 | -7.26594 | 136.83943 | 36824 ft | 460 kts | 142° |
| 2026-04-27 06:51 | -7.31692 | 136.87853 | 36819 ft | 459 kts | 142° |
| 2026-04-27 06:51 | -7.36777 | 136.91754 | 36825 ft | 460 kts | 142° |
| 2026-04-27 06:52 | -7.41877 | 136.95668 | 36823 ft | 461 kts | 142° |
| 2026-04-27 06:52 | -7.46981 | 136.99586 | 36822 ft | 460 kts | 142° |
| 2026-04-27 06:53 | -7.52054 | 137.03482 | 36823 ft | 463 kts | 143° |
| 2026-04-27 06:53 | -7.57217 | 137.07448 | 36822 ft | 468 kts | 143° |
| 2026-04-27 06:54 | -7.62403 | 137.11432 | 36822 ft | 466 kts | 143° |
| 2026-04-27 06:54 | -7.67566 | 137.15400 | 36823 ft | 467 kts | 142° |
| 2026-04-27 06:55 | -7.72695 | 137.19343 | 36828 ft | 466 kts | 142° |
| 2026-04-27 06:55 | -7.77852 | 137.23309 | 36822 ft | 464 kts | 142° |
| 2026-04-27 06:56 | -7.83015 | 137.27281 | 36827 ft | 468 kts | 143° |
| 2026-04-27 06:56 | -7.88200 | 137.31272 | 36833 ft | 469 kts | 143° |
| 2026-04-27 06:57 | -7.93409 | 137.35281 | 36826 ft | 472 kts | 143° |
| 2026-04-27 06:57 | -7.98611 | 137.39287 | 36821 ft | 473 kts | 143° |
| 2026-04-27 06:58 | -8.06404 | 137.45292 | 36825 ft | 469 kts | 143° |
| 2026-04-27 06:59 | -8.11598 | 137.49294 | 36830 ft | 467 kts | 143° |
| 2026-04-27 06:59 | -8.16760 | 137.53274 | 36834 ft | 466 kts | 143° |
| 2026-04-27 07:00 | -8.21905 | 137.57242 | 36833 ft | 470 kts | 143° |
| 2026-04-27 07:00 | -8.27094 | 137.61245 | 36835 ft | 468 kts | 143° |
| 2026-04-27 07:01 | -8.32275 | 137.65243 | 36830 ft | 469 kts | 143° |
| 2026-04-27 07:01 | -8.37470 | 137.69254 | 36825 ft | 469 kts | 143° |
| 2026-04-27 07:02 | -8.42609 | 137.73223 | 36827 ft | 467 kts | 143° |
| 2026-04-27 07:02 | -8.47785 | 137.77222 | 36825 ft | 469 kts | 143° |
| 2026-04-27 07:03 | -8.52949 | 137.81213 | 36830 ft | 466 kts | 143° |
| 2026-04-27 07:03 | -8.58105 | 137.85198 | 36840 ft | 468 kts | 143° |
| 2026-04-27 07:04 | -8.63284 | 137.89204 | 36832 ft | 468 kts | 143° |
| 2026-04-27 07:04 | -8.68472 | 137.93217 | 36837 ft | 470 kts | 143° |
| 2026-04-27 07:05 | -8.73643 | 137.97219 | 36842 ft | 470 kts | 143° |
| 2026-04-27 07:05 | -8.78817 | 138.01225 | 36838 ft | 469 kts | 143° |
| 2026-04-27 07:06 | -8.84006 | 138.05244 | 36838 ft | 468 kts | 143° |
| 2026-04-27 07:06 | -8.88843 | 138.09659 | 36839 ft | 469 kts | 137° |
| 2026-04-27 07:07 | -8.93522 | 138.14246 | 36840 ft | 467 kts | 136° |
| 2026-04-27 07:07 | -8.98148 | 138.18858 | 36840 ft | 467 kts | 136° |
| 2026-04-27 07:08 | -9.02747 | 138.23445 | 36840 ft | 467 kts | 136° |
| 2026-04-27 07:08 | -9.07378 | 138.28053 | 36840 ft | 468 kts | 136° |
| 2026-04-27 07:09 | -9.12033 | 138.32680 | 36842 ft | 469 kts | 136° |
| 2026-04-27 07:09 | -9.15922 | 138.36546 | 36842 ft | 472 kts | 136° |
| 2026-04-27 07:10 | -9.20602 | 138.41201 | 36843 ft | 472 kts | 136° |
| 2026-04-27 07:10 | -9.25296 | 138.45873 | 36844 ft | 471 kts | 136° |
| 2026-04-27 07:11 | -9.29949 | 138.50506 | 36845 ft | 472 kts | 136° |
| 2026-04-27 07:11 | -9.34627 | 138.55166 | 36844 ft | 470 kts | 136° |
| 2026-04-27 07:12 | -9.39286 | 138.59808 | 36846 ft | 470 kts | 137° |
| 2026-04-27 07:12 | -9.43953 | 138.64460 | 36845 ft | 470 kts | 136° |
| 2026-04-27 07:13 | -9.48609 | 138.69103 | 36844 ft | 469 kts | 137° |
| 2026-04-27 07:13 | -9.53239 | 138.73720 | 36844 ft | 470 kts | 137° |
| 2026-04-27 07:14 | -9.57898 | 138.78370 | 36848 ft | 469 kts | 136° |
| 2026-04-27 07:14 | -9.62554 | 138.83019 | 36851 ft | 470 kts | 137° |
| 2026-04-27 07:15 | -9.67230 | 138.87689 | 36853 ft | 471 kts | 137° |
| 2026-04-27 07:15 | -9.71862 | 138.92317 | 36857 ft | 471 kts | 137° |
| 2026-04-27 07:16 | -9.76522 | 138.96975 | 36857 ft | 470 kts | 137° |
| 2026-04-27 07:16 | -9.81182 | 139.01636 | 36855 ft | 470 kts | 137° |
| 2026-04-27 07:17 | -9.85842 | 139.06298 | 36855 ft | 470 kts | 137° |
| 2026-04-27 07:17 | -9.90500 | 139.10960 | 36858 ft | 470 kts | 137° |
| 2026-04-27 07:18 | -9.95151 | 139.15617 | 36857 ft | 470 kts | 137° |
| 2026-04-27 07:18 | -9.99782 | 139.20257 | 36860 ft | 470 kts | 137° |
| 2026-04-27 07:19 | -10.04434 | 139.24918 | 36859 ft | 470 kts | 137° |
| 2026-04-27 07:19 | -10.09103 | 139.29598 | 36859 ft | 472 kts | 137° |
| 2026-04-27 07:20 | -10.13773 | 139.34283 | 36859 ft | 472 kts | 137° |
| 2026-04-27 07:20 | -10.18442 | 139.38968 | 36859 ft | 472 kts | 137° |
| 2026-04-27 07:21 | -10.23082 | 139.43626 | 36863 ft | 472 kts | 137° |
| 2026-04-27 07:21 | -10.27747 | 139.48311 | 36863 ft | 472 kts | 137° |
| 2026-04-27 07:22 | -10.32417 | 139.53004 | 36862 ft | 472 kts | 137° |
| 2026-04-27 07:22 | -10.37083 | 139.57694 | 36864 ft | 472 kts | 137° |
| 2026-04-27 07:23 | -10.41754 | 139.62391 | 36859 ft | 472 kts | 137° |
| 2026-04-27 07:23 | -10.46430 | 139.67095 | 36863 ft | 472 kts | 137° |
| 2026-04-27 07:24 | -10.51077 | 139.71773 | 36865 ft | 472 kts | 137° |
| 2026-04-27 07:24 | -10.55752 | 139.76480 | 36866 ft | 472 kts | 137° |
| 2026-04-27 07:25 | -10.60426 | 139.81190 | 36861 ft | 473 kts | 137° |
| 2026-04-27 07:25 | -10.65103 | 139.85903 | 36864 ft | 473 kts | 137° |
| 2026-04-27 07:26 | -10.69772 | 139.90612 | 36869 ft | 473 kts | 137° |
| 2026-04-27 07:26 | -10.74413 | 139.95295 | 36860 ft | 469 kts | 137° |
| 2026-04-27 07:26 | -10.76705 | 139.97611 | 36869 ft | 456 kts | 137° |
| 2026-04-27 07:27 | -10.78925 | 139.99857 | 36870 ft | 443 kts | 138° |
| 2026-04-27 07:27 | -10.83227 | 140.04204 | 36867 ft | 432 kts | 138° |
| 2026-04-27 07:28 | -10.87503 | 140.08517 | 36863 ft | 433 kts | 138° |
| 2026-04-27 07:28 | -10.91754 | 140.12809 | 36865 ft | 433 kts | 138° |
| 2026-04-27 07:29 | -10.96026 | 140.17127 | 36867 ft | 433 kts | 138° |
| 2026-04-27 07:29 | -11.00304 | 140.21459 | 36868 ft | 433 kts | 138° |
| 2026-04-27 07:30 | -11.04587 | 140.25798 | 36862 ft | 435 kts | 138° |
| 2026-04-27 07:30 | -11.08859 | 140.30130 | 36880 ft | 436 kts | 138° |
| 2026-04-27 07:31 | -11.13186 | 140.34519 | 36860 ft | 436 kts | 138° |
| 2026-04-27 07:31 | -11.17463 | 140.38860 | 36860 ft | 436 kts | 138° |
| 2026-04-27 07:32 | -11.21763 | 140.43226 | 36880 ft | 436 kts | 138° |
| 2026-04-27 07:32 | -11.26071 | 140.47601 | 36864 ft | 437 kts | 138° |
| 2026-04-27 07:33 | -11.30377 | 140.51976 | 36878 ft | 437 kts | 138° |
| 2026-04-27 07:33 | -11.34662 | 140.56332 | 36862 ft | 437 kts | 138° |
| 2026-04-27 07:34 | -11.38963 | 140.60707 | 36862 ft | 434 kts | 138° |
| 2026-04-27 07:34 | -11.43195 | 140.65015 | 36880 ft | 431 kts | 138° |
| 2026-04-27 07:35 | -11.47438 | 140.69333 | 36860 ft | 431 kts | 138° |
| 2026-04-27 07:35 | -11.51691 | 140.73663 | 36862 ft | 432 kts | 138° |
| 2026-04-27 07:36 | -11.55947 | 140.77999 | 36877 ft | 432 kts | 138° |
| 2026-04-27 07:36 | -11.60201 | 140.82335 | 36860 ft | 432 kts | 138° |
| 2026-04-27 07:37 | -11.64445 | 140.86663 | 36879 ft | 432 kts | 138° |
| 2026-04-27 07:37 | -11.68675 | 140.90979 | 36870 ft | 432 kts | 139° |
| 2026-04-27 07:38 | -11.72934 | 140.95326 | 36867 ft | 433 kts | 139° |
| 2026-04-27 07:38 | -11.77190 | 140.99672 | 36864 ft | 433 kts | 139° |
| 2026-04-27 07:39 | -11.81446 | 141.04020 | 36865 ft | 433 kts | 139° |
| 2026-04-27 07:39 | -11.85696 | 141.08365 | 36861 ft | 433 kts | 139° |
| 2026-04-27 07:40 | -11.89938 | 141.12702 | 36864 ft | 433 kts | 139° |
| 2026-04-27 07:40 | -11.94198 | 141.17060 | 36862 ft | 434 kts | 139° |
| 2026-04-27 07:41 | -11.98469 | 141.21432 | 36863 ft | 434 kts | 139° |
| 2026-04-27 07:41 | -12.02770 | 141.25831 | 36861 ft | 446 kts | 139° |
| 2026-04-27 07:42 | -12.07216 | 141.30382 | 36860 ft | 459 kts | 139° |
| 2026-04-27 07:42 | -12.11764 | 141.35043 | 36858 ft | 463 kts | 139° |
| 2026-04-27 07:43 | -12.16262 | 141.39666 | 36860 ft | 458 kts | 139° |
| 2026-04-27 07:43 | -12.20752 | 141.44276 | 36859 ft | 457 kts | 139° |
| 2026-04-27 07:44 | -12.25246 | 141.48890 | 36858 ft | 458 kts | 139° |
| 2026-04-27 07:44 | -12.29743 | 141.53508 | 36858 ft | 458 kts | 139° |
| 2026-04-27 07:45 | -12.34239 | 141.58128 | 36861 ft | 458 kts | 139° |
| 2026-04-27 07:45 | -12.38737 | 141.62752 | 36875 ft | 458 kts | 139° |
| 2026-04-27 07:46 | -12.43204 | 141.67348 | 36855 ft | 458 kts | 139° |
| 2026-04-27 07:46 | -12.47714 | 141.71990 | 36859 ft | 458 kts | 139° |
| 2026-04-27 07:47 | -12.52217 | 141.76628 | 36861 ft | 458 kts | 139° |
| 2026-04-27 07:47 | -12.56687 | 141.81234 | 36859 ft | 458 kts | 139° |
| 2026-04-27 07:48 | -12.61188 | 141.85874 | 36857 ft | 460 kts | 139° |
| 2026-04-27 07:48 | -12.65695 | 141.90523 | 36858 ft | 460 kts | 139° |
| 2026-04-27 07:49 | -12.70323 | 141.95027 | 36858 ft | 458 kts | 143° |
| 2026-04-27 07:49 | -12.75138 | 141.99289 | 36862 ft | 457 kts | 145° |
| 2026-04-27 07:50 | -12.79976 | 142.03524 | 36858 ft | 457 kts | 144° |
| 2026-04-27 07:50 | -12.84768 | 142.07764 | 36855 ft | 458 kts | 144° |
| 2026-04-27 07:51 | -12.89581 | 142.12056 | 36859 ft | 459 kts | 144° |
| 2026-04-27 07:51 | -12.94376 | 142.16343 | 36862 ft | 459 kts | 144° |
| 2026-04-27 07:52 | -12.99207 | 142.20665 | 36865 ft | 459 kts | 144° |
| 2026-04-27 07:52 | -13.03991 | 142.24945 | 36860 ft | 459 kts | 144° |
| 2026-04-27 07:53 | -13.08809 | 142.29257 | 36862 ft | 459 kts | 144° |
| 2026-04-27 07:53 | -13.13635 | 142.33576 | 36864 ft | 460 kts | 144° |
| 2026-04-27 07:54 | -13.18424 | 142.37866 | 36872 ft | 460 kts | 144° |
| 2026-04-27 07:54 | -13.23252 | 142.42194 | 36866 ft | 460 kts | 144° |
| 2026-04-27 07:55 | -13.28072 | 142.46516 | 36866 ft | 460 kts | 144° |
| 2026-04-27 07:55 | -13.32893 | 142.50843 | 36871 ft | 460 kts | 144° |
| 2026-04-27 07:56 | -13.37708 | 142.55166 | 36876 ft | 461 kts | 144° |
| 2026-04-27 07:56 | -13.42520 | 142.59487 | 36881 ft | 462 kts | 144° |
| 2026-04-27 07:57 | -13.47381 | 142.63853 | 36879 ft | 464 kts | 144° |
| 2026-04-27 07:57 | -13.52249 | 142.68232 | 36881 ft | 465 kts | 144° |
| 2026-04-27 07:58 | -13.56322 | 142.71897 | 36881 ft | 464 kts | 144° |
| 2026-04-27 07:58 | -13.61153 | 142.76247 | 36881 ft | 464 kts | 144° |
| 2026-04-27 07:59 | -13.66014 | 142.80626 | 36886 ft | 465 kts | 144° |
| 2026-04-27 07:59 | -13.73322 | 142.87213 | 36891 ft | 465 kts | 144° |
| 2026-04-27 08:00 | -13.78188 | 142.91602 | 36895 ft | 467 kts | 145° |
| 2026-04-27 08:00 | -13.83087 | 142.96023 | 36900 ft | 468 kts | 145° |
| 2026-04-27 08:01 | -13.87984 | 143.00445 | 36894 ft | 468 kts | 145° |
| 2026-04-27 08:01 | -13.92850 | 143.04841 | 36891 ft | 469 kts | 144° |
| 2026-04-27 08:02 | -13.97758 | 143.09279 | 36897 ft | 469 kts | 144° |
| 2026-04-27 08:02 | -14.02665 | 143.13720 | 36900 ft | 469 kts | 144° |
| 2026-04-27 08:03 | -14.07580 | 143.18172 | 36904 ft | 469 kts | 144° |
| 2026-04-27 08:03 | -14.12463 | 143.22590 | 36903 ft | 471 kts | 145° |
| 2026-04-27 08:04 | -14.17392 | 143.27055 | 36899 ft | 472 kts | 145° |
| 2026-04-27 08:04 | -14.22333 | 143.31536 | 36897 ft | 473 kts | 145° |
| 2026-04-27 08:05 | -14.27279 | 143.36024 | 36897 ft | 474 kts | 145° |
| 2026-04-27 08:05 | -14.32228 | 143.40519 | 36896 ft | 473 kts | 145° |
| 2026-04-27 08:06 | -14.37154 | 143.44994 | 36896 ft | 473 kts | 145° |
| 2026-04-27 08:06 | -14.42104 | 143.49493 | 36894 ft | 473 kts | 145° |
| 2026-04-27 08:07 | -14.47056 | 143.53996 | 36898 ft | 476 kts | 145° |
| 2026-04-27 08:07 | -14.52033 | 143.58525 | 36891 ft | 477 kts | 145° |
| 2026-04-27 08:08 | -14.57014 | 143.63063 | 36895 ft | 477 kts | 145° |
| 2026-04-27 08:08 | -14.61995 | 143.67604 | 36892 ft | 477 kts | 145° |
| 2026-04-27 08:09 | -14.66934 | 143.72107 | 36895 ft | 477 kts | 145° |
| 2026-04-27 08:09 | -14.71915 | 143.76653 | 36899 ft | 477 kts | 145° |
| 2026-04-27 08:10 | -14.76947 | 143.81240 | 36892 ft | 487 kts | 145° |
| 2026-04-27 08:10 | -14.82112 | 143.85939 | 36894 ft | 501 kts | 145° |
| 2026-04-27 08:11 | -14.87338 | 143.90689 | 36894 ft | 503 kts | 145° |
| 2026-04-27 08:11 | -14.92586 | 143.95475 | 36895 ft | 502 kts | 145° |
| 2026-04-27 08:12 | -14.97822 | 144.00274 | 36896 ft | 502 kts | 144° |
| 2026-04-27 08:12 | -15.02633 | 144.04720 | 36903 ft | 482 kts | 144° |
| 2026-04-27 08:13 | -15.05122 | 144.07041 | 37033 ft | 484 kts | 144° |
| 2026-04-27 08:13 | -15.07583 | 144.09347 | 37094 ft | 473 kts | 144° |
| 2026-04-27 08:13 | -15.12447 | 144.13929 | 37244 ft | 478 kts | 144° |
| 2026-04-27 08:14 | -15.14912 | 144.16253 | 36989 ft | 478 kts | 144° |
| 2026-04-27 08:14 | -15.17335 | 144.18633 | 36906 ft | 484 kts | 138° |
| 2026-04-27 08:14 | -15.22069 | 144.23499 | 36903 ft | 479 kts | 145° |
| 2026-04-27 08:15 | -15.27090 | 144.28051 | 36908 ft | 480 kts | 146° |
| 2026-04-27 08:15 | -15.32113 | 144.32618 | 36908 ft | 481 kts | 145° |
| 2026-04-27 08:16 | -15.37136 | 144.37206 | 36915 ft | 481 kts | 145° |
| 2026-04-27 08:16 | -15.42168 | 144.41810 | 36914 ft | 481 kts | 145° |
| 2026-04-27 08:17 | -15.47156 | 144.46379 | 36938 ft | 481 kts | 145° |
| 2026-04-27 08:17 | -15.52171 | 144.50976 | 36922 ft | 481 kts | 145° |
| 2026-04-27 08:18 | -15.57193 | 144.55582 | 36927 ft | 482 kts | 145° |
| 2026-04-27 08:18 | -15.62218 | 144.60199 | 36894 ft | 481 kts | 145° |
| 2026-04-27 08:19 | -15.64715 | 144.62499 | 36421 ft | 479 kts | 145° |
| 2026-04-27 08:19 | -15.67202 | 144.64785 | 35552 ft | 487 kts | 144° |
| 2026-04-27 08:19 | -15.69763 | 144.67130 | 34670 ft | 496 kts | 144° |
| 2026-04-27 08:19 | -15.72363 | 144.69512 | 33766 ft | 504 kts | 144° |
| 2026-04-27 08:20 | -15.75016 | 144.71948 | 32751 ft | 511 kts | 144° |
| 2026-04-27 08:20 | -15.77682 | 144.74402 | 31853 ft | 514 kts | 144° |
| 2026-04-27 08:20 | -15.80360 | 144.76868 | 31025 ft | 516 kts | 144° |
| 2026-04-27 08:20 | -15.83046 | 144.79343 | 30331 ft | 514 kts | 144° |
| 2026-04-27 08:21 | -15.85707 | 144.81796 | 29706 ft | 507 kts | 144° |
| 2026-04-27 08:21 | -15.88329 | 144.84216 | 28889 ft | 500 kts | 144° |
| 2026-04-27 08:21 | -15.90896 | 144.86587 | 28020 ft | 488 kts | 143° |
| 2026-04-27 08:21 | -15.93412 | 144.88909 | 26946 ft | 480 kts | 143° |
| 2026-04-27 08:22 | -15.95844 | 144.91157 | 25947 ft | 467 kts | 142° |
| 2026-04-27 08:22 | -15.98246 | 144.93375 | 24773 ft | 457 kts | 141° |
| 2026-04-27 08:22 | -16.00592 | 144.95537 | 23688 ft | 445 kts | 141° |
| 2026-04-27 08:22 | -16.02887 | 144.97653 | 22617 ft | 437 kts | 141° |
| 2026-04-27 08:23 | -16.05127 | 144.99721 | 21823 ft | 426 kts | 141° |
| 2026-04-27 08:23 | -16.07337 | 145.01762 | 21085 ft | 424 kts | 141° |
| 2026-04-27 08:23 | -16.09548 | 145.03803 | 20360 ft | 422 kts | 141° |
| 2026-04-27 08:23 | -16.11738 | 145.05831 | 19668 ft | 420 kts | 141° |
| 2026-04-27 08:24 | -16.13924 | 145.07852 | 18976 ft | 418 kts | 141° |
| 2026-04-27 08:24 | -16.16086 | 145.09851 | 18309 ft | 415 kts | 141° |
| 2026-04-27 08:24 | -16.18224 | 145.11832 | 17481 ft | 409 kts | 141° |
| 2026-04-27 08:24 | -16.20323 | 145.13774 | 16514 ft | 395 kts | 141° |
| 2026-04-27 08:25 | -16.22346 | 145.15674 | 15244 ft | 389 kts | 138° |
| 2026-04-27 08:25 | -16.24090 | 145.17758 | 14133 ft | 381 kts | 131° |
| 2026-04-27 08:25 | -16.25697 | 145.19938 | 12923 ft | 373 kts | 129° |
| 2026-04-27 08:25 | -16.27225 | 145.22060 | 11811 ft | 360 kts | 128° |
| 2026-04-27 08:26 | -16.28706 | 145.24120 | 10865 ft | 347 kts | 128° |
| 2026-04-27 08:26 | -16.30092 | 145.26043 | 10522 ft | 317 kts | 128° |
| 2026-04-27 08:26 | -16.31346 | 145.27784 | 10466 ft | 286 kts | 129° |
| 2026-04-27 08:26 | -16.32507 | 145.29392 | 10392 ft | 270 kts | 129° |
| 2026-04-27 08:27 | -16.33626 | 145.30937 | 10096 ft | 268 kts | 128° |
| 2026-04-27 08:27 | -16.34754 | 145.32494 | 9701 ft | 269 kts | 128° |
| 2026-04-27 08:27 | -16.35861 | 145.34022 | 9367 ft | 268 kts | 128° |
| 2026-04-27 08:27 | -16.36979 | 145.35567 | 9030 ft | 266 kts | 128° |
| 2026-04-27 08:28 | -16.38092 | 145.37106 | 8688 ft | 264 kts | 128° |
| 2026-04-27 08:28 | -16.39196 | 145.38632 | 8356 ft | 263 kts | 128° |
| 2026-04-27 08:28 | -16.40292 | 145.40148 | 8039 ft | 261 kts | 128° |
| 2026-04-27 08:28 | -16.41378 | 145.41651 | 7707 ft | 259 kts | 128° |
| 2026-04-27 08:29 | -16.42461 | 145.43150 | 7377 ft | 258 kts | 128° |
| 2026-04-27 08:29 | -16.43535 | 145.44636 | 7053 ft | 256 kts | 128° |
| 2026-04-27 08:29 | -16.44604 | 145.46116 | 6723 ft | 254 kts | 128° |
| 2026-04-27 08:29 | -16.45666 | 145.47585 | 6391 ft | 253 kts | 128° |
| 2026-04-27 08:30 | -16.46725 | 145.49051 | 6046 ft | 252 kts | 128° |
| 2026-04-27 08:30 | -16.47761 | 145.50485 | 5724 ft | 250 kts | 128° |
| 2026-04-27 08:30 | -16.48818 | 145.51948 | 5391 ft | 248 kts | 128° |
| 2026-04-27 08:30 | -16.49835 | 145.53358 | 5071 ft | 245 kts | 128° |
| 2026-04-27 08:31 | -16.50854 | 145.54771 | 4754 ft | 243 kts | 128° |
| 2026-04-27 08:31 | -16.51870 | 145.56181 | 4426 ft | 241 kts | 128° |
| 2026-04-27 08:31 | -16.52876 | 145.57577 | 4057 ft | 241 kts | 129° |
| 2026-04-27 08:31 | -16.53897 | 145.58959 | 3751 ft | 240 kts | 132° |
| 2026-04-27 08:32 | -16.55164 | 145.60078 | 3692 ft | 241 kts | 149° |
| 2026-04-27 08:32 | -16.56675 | 145.60873 | 3699 ft | 245 kts | 155° |
| 2026-04-27 08:32 | -16.58240 | 145.61591 | 3702 ft | 246 kts | 156° |
| 2026-04-27 08:32 | -16.59814 | 145.62284 | 3698 ft | 245 kts | 156° |
| 2026-04-27 08:33 | -16.61396 | 145.62953 | 3690 ft | 245 kts | 156° |
| 2026-04-27 08:33 | -16.62960 | 145.63652 | 3654 ft | 242 kts | 155° |
| 2026-04-27 08:33 | -16.64437 | 145.64339 | 3549 ft | 228 kts | 155° |
| 2026-04-27 08:33 | -16.65824 | 145.64991 | 3552 ft | 209 kts | 155° |
| 2026-04-27 08:34 | -16.67088 | 145.65587 | 3560 ft | 190 kts | 155° |
| 2026-04-27 08:34 | -16.68238 | 145.66130 | 3556 ft | 170 kts | 155° |
| 2026-04-27 08:34 | -16.69238 | 145.66599 | 3554 ft | 144 kts | 155° |
| 2026-04-27 08:34 | -16.70080 | 145.66967 | 3553 ft | 119 kts | 155° |
| 2026-04-27 08:35 | -16.70799 | 145.67275 | 3402 ft | 109 kts | 156° |
| 2026-04-27 08:35 | -16.71495 | 145.67573 | 3112 ft | 110 kts | 156° |
| 2026-04-27 08:35 | -16.72209 | 145.67880 | 2919 ft | 111 kts | 155° |
| 2026-04-27 08:35 | -16.72949 | 145.68209 | 2721 ft | 119 kts | 157° |
| 2026-04-27 08:36 | -16.73688 | 145.68539 | 2586 ft | 116 kts | 156° |
| 2026-04-27 08:36 | -16.74435 | 145.68877 | 2272 ft | 116 kts | 156° |
| 2026-04-27 08:36 | -16.75173 | 145.69212 | 2109 ft | 115 kts | 156° |
| 2026-04-27 08:36 | -16.75904 | 145.69544 | 2007 ft | 114 kts | 156° |
| 2026-04-27 08:37 | -16.76618 | 145.69868 | 1868 ft | 114 kts | 155° |
| 2026-04-27 08:37 | -16.77362 | 145.70207 | 1761 ft | 119 kts | 156° |
| 2026-04-27 08:37 | -16.78130 | 145.70556 | 1643 ft | 122 kts | 156° |
| 2026-04-27 08:37 | -16.78918 | 145.70915 | 1502 ft | 124 kts | 156° |
| 2026-04-27 08:38 | -16.79708 | 145.71263 | 1415 ft | 122 kts | 156° |
| 2026-04-27 08:38 | -16.80498 | 145.71599 | 1260 ft | 123 kts | 156° |
| 2026-04-27 08:38 | -16.81293 | 145.71961 | 1089 ft | 126 kts | 153° |
| 2026-04-27 08:38 | -16.82096 | 145.72313 | 928 ft | 124 kts | 154° |
| 2026-04-27 08:39 | -16.82892 | 145.72678 | 806 ft | 125 kts | 153° |
| 2026-04-27 08:39 | -16.83682 | 145.73038 | 671 ft | 122 kts | 156° |
| 2026-04-27 08:39 | -16.84457 | 145.73388 | 472 ft | 121 kts | 155° |
| 2026-04-27 08:39 | -16.85227 | 145.73734 | 351 ft | 120 kts | 154° |
| 2026-04-27 08:40 | -16.85986 | 145.74078 | 191 ft | 119 kts | 156° |
| 2026-04-27 08:40 | -16.86767 | 145.74441 | 30 ft | 128 kts | 155° |
| 2026-04-27 08:40 | -16.87553 | 145.74797 | 25 ft | 105 kts | 156° |
| 2026-04-27 08:40 | -16.88036 | 145.75013 | 24 ft | 60 kts | 156° |
| 2026-04-27 08:41 | -16.88340 | 145.75156 | 25 ft | 17 kts | 139° |
| 2026-04-27 08:41 | -16.88341 | 145.75265 | 24 ft | 13 kts | 64° |
| 2026-04-27 08:41 | -16.88302 | 145.75306 | 21 ft | 8 kts | 22° |
| 2026-04-27 08:41 | -16.88273 | 145.75306 | 23 ft | 3 kts | 349° |
| 2026-04-27 08:42 | -16.88244 | 145.75295 | 21 ft | 0 kts | 338° |
| 2026-04-27 08:42 | -16.88230 | 145.75289 | 2 ft | 6 kts | 338° |
| 2026-04-27 08:43 | -16.88173 | 145.75265 | 21 ft | 12 kts | 336° |
| 2026-04-27 08:43 | -16.88116 | 145.75239 | 21 ft | 14 kts | 336° |
| 2026-04-27 08:43 | -16.88042 | 145.75206 | 21 ft | 13 kts | 336° |
| 2026-04-27 08:43 | -16.87960 | 145.75168 | 21 ft | 10 kts | 336° |
| 2026-04-27 08:44 | -16.87906 | 145.75144 | 22 ft | 6 kts | 336° |
| 2026-04-27 08:44 | -16.87876 | 145.75130 | 20 ft | 7 kts | 336° |
| 2026-04-27 08:44 | -16.87830 | 145.75110 | 20 ft | 6 kts | 336° |
| 2026-04-27 08:44 | -16.87808 | 145.75100 | 24 ft | 1 kts | 336° |
| 2026-04-27 08:45 | -16.87800 | 145.75096 | 23 ft | 2 kts | 336° |
| 2026-04-27 08:45 | -16.87786 | 145.75090 | 21 ft | 2 kts | 336° |
| 2026-04-27 08:45 | -16.87785 | 145.75090 | 21 ft | 0 kts | 336° |
| 2026-04-27 08:46 | -16.87773 | 145.75084 | 21 ft | 5 kts | 336° |
| 2026-04-27 08:46 | -16.87740 | 145.75069 | 21 ft | 6 kts | 337° |
| 2026-04-27 08:46 | -16.87684 | 145.75047 | 22 ft | 10 kts | 342° |
| 2026-04-27 08:47 | -16.87621 | 145.75023 | 20 ft | 12 kts | 337° |
| 2026-04-27 08:47 | -16.87556 | 145.74993 | 25 ft | 8 kts | 337° |
| 2026-04-27 08:47 | -16.87504 | 145.74970 | 23 ft | 8 kts | 337° |
| 2026-04-27 08:47 | -16.87449 | 145.74946 | 12 ft | 9 kts | 336° |
| 2026-04-27 08:48 | -16.87390 | 145.74920 | 5 ft | 10 kts | 336° |
| 2026-04-27 08:48 | -16.87327 | 145.74896 | 5 ft | 9 kts | 352° |
| 2026-04-27 08:48 | -16.87276 | 145.74912 | 3 ft | 6 kts | 38° |
| 2026-04-27 08:48 | -16.87254 | 145.74947 | 5 ft | 7 kts | 64° |
| 2026-04-27 08:49 | -16.87225 | 145.75013 | 5 ft | 12 kts | 66° |
| 2026-04-27 08:49 | -16.87190 | 145.75099 | 8 ft | 11 kts | 66° |
| 2026-04-27 08:49 | -16.87162 | 145.75165 | 4 ft | 9 kts | 66° |
| 2026-04-27 08:49 | -16.87134 | 145.75230 | 4 ft | 10 kts | 66° |
| 2026-04-27 08:50 | -16.87103 | 145.75305 | 4 ft | 12 kts | 66° |
| 2026-04-27 08:50 | -16.87069 | 145.75385 | 3 ft | 11 kts | 66° |
| 2026-04-27 08:50 | -16.87050 | 145.75430 | 1 ft | 0 kts | 66° |
| 2026-04-27 08:50 | -16.87047 | 145.75436 | 1 ft | 3 kts | 66° |
| 2026-04-27 08:51 | -16.87030 | 145.75476 | 4 ft | 7 kts | 66° |
| 2026-04-27 08:51 | -16.87025 | 145.75490 | 1 ft | 0 kts | 69° |
| 2026-04-27 08:52 | -16.87019 | 145.75531 | 3 ft | 8 kts | 101° |
| 2026-04-27 08:52 | -16.87063 | 145.75563 | 3 ft | 9 kts | 165° |
| 2026-04-27 08:52 | -16.87099 | 145.75564 | 3 ft | 1 kts | 182° |
| 2026-04-27 08:53 | -16.87123 | 145.75569 | 3 ft | 6 kts | 165° |
| 2026-04-27 08:53 | -16.87146 | 145.75576 | 6 ft | 5 kts | 160° |
| 2026-04-27 08:53 | -16.87175 | 145.75589 | 4 ft | 1 kts | 156° |
| 2026-04-27 08:53 | -16.87177 | 145.75590 | 3 ft | 0 kts | 156° |